<?xml version="1.0" encoding="UTF-8" standalone="no" ?>
<gpx xmlns="http://www.topografix.com/GPX/1/1" xmlns:xsi="http://www.w3.org/2001/XMLSchema-instance" xsi:schemaLocation="http://www.topografix.com/GPX/1/1 http://www.topografix.com/GPX/1/1/gpx.xsd" version="1.1" creator="VisuGPX - https://www.visugpx.com">
  <metadata>
    <name>Montage 9 octobre 2017</name>
    <desc><![CDATA[File with points/tracks from Locus Map/3.25.5]]></desc>
  </metadata>
  <trk>
    <name><![CDATA[2017-10-09 14:14:00]]></name>
    <trkseg>
      <trkpt lat="49.53487" lon="3.82469">
        <ele>120.11</ele>
        <time>2017-10-09T12:14:01.999Z</time>
      </trkpt>
      <trkpt lat="49.53495" lon="3.82459">
        <ele>122</ele>
        <time>2017-10-09T12:14:11.999Z</time>
      </trkpt>
      <trkpt lat="49.53506" lon="3.82444">
        <ele>124.08</ele>
        <time>2017-10-09T12:14:21.999Z</time>
      </trkpt>
      <trkpt lat="49.53515" lon="3.82436">
        <ele>125.77</ele>
        <time>2017-10-09T12:14:31.999Z</time>
      </trkpt>
      <trkpt lat="49.53521" lon="3.82421">
        <ele>127.46</ele>
        <time>2017-10-09T12:14:41.999Z</time>
      </trkpt>
      <trkpt lat="49.53525" lon="3.82401">
        <ele>128.45</ele>
        <time>2017-10-09T12:14:51.999Z</time>
      </trkpt>
      <trkpt lat="49.53528" lon="3.82383">
        <ele>128.37</ele>
        <time>2017-10-09T12:15:01.999Z</time>
      </trkpt>
      <trkpt lat="49.53522" lon="3.82361">
        <ele>127.91</ele>
        <time>2017-10-09T12:15:11.999Z</time>
      </trkpt>
      <trkpt lat="49.53526" lon="3.82343">
        <ele>127.34</ele>
        <time>2017-10-09T12:15:21.999Z</time>
      </trkpt>
      <trkpt lat="49.53528" lon="3.82322">
        <ele>126.5</ele>
        <time>2017-10-09T12:15:31.999Z</time>
      </trkpt>
      <trkpt lat="49.53528" lon="3.82299">
        <ele>125.87</ele>
        <time>2017-10-09T12:15:41.999Z</time>
      </trkpt>
      <trkpt lat="49.53526" lon="3.82281">
        <ele>124.82</ele>
        <time>2017-10-09T12:15:51.999Z</time>
      </trkpt>
      <trkpt lat="49.53522" lon="3.82257">
        <ele>123.68</ele>
        <time>2017-10-09T12:16:01.999Z</time>
      </trkpt>
      <trkpt lat="49.5352" lon="3.82247">
        <ele>123.64</ele>
        <time>2017-10-09T12:16:11.999Z</time>
      </trkpt>
      <trkpt lat="49.53512" lon="3.8223">
        <ele>123.54</ele>
        <time>2017-10-09T12:16:21.999Z</time>
      </trkpt>
      <trkpt lat="49.53507" lon="3.82203">
        <ele>123.08</ele>
        <time>2017-10-09T12:16:31.999Z</time>
      </trkpt>
      <trkpt lat="49.53502" lon="3.82185">
        <ele>123.64</ele>
        <time>2017-10-09T12:16:41.999Z</time>
      </trkpt>
      <trkpt lat="49.53496" lon="3.8217">
        <ele>124.8</ele>
        <time>2017-10-09T12:16:51.999Z</time>
      </trkpt>
      <trkpt lat="49.53486" lon="3.82149">
        <ele>125.93</ele>
        <time>2017-10-09T12:17:01.999Z</time>
      </trkpt>
      <trkpt lat="49.53478" lon="3.82131">
        <ele>126.64</ele>
        <time>2017-10-09T12:17:11.999Z</time>
      </trkpt>
      <trkpt lat="49.53471" lon="3.82119">
        <ele>127.78</ele>
        <time>2017-10-09T12:17:21.999Z</time>
      </trkpt>
      <trkpt lat="49.5346" lon="3.82106">
        <ele>129.62</ele>
        <time>2017-10-09T12:17:31.999Z</time>
      </trkpt>
      <trkpt lat="49.53446" lon="3.82087">
        <ele>131.67</ele>
        <time>2017-10-09T12:17:41.999Z</time>
      </trkpt>
      <trkpt lat="49.53435" lon="3.82071">
        <ele>133.52</ele>
        <time>2017-10-09T12:17:51.999Z</time>
      </trkpt>
      <trkpt lat="49.53425" lon="3.82058">
        <ele>135.07</ele>
        <time>2017-10-09T12:18:01.999Z</time>
      </trkpt>
      <trkpt lat="49.53416" lon="3.82039">
        <ele>136.53</ele>
        <time>2017-10-09T12:18:11.999Z</time>
      </trkpt>
      <trkpt lat="49.53408" lon="3.82022">
        <ele>138.07</ele>
        <time>2017-10-09T12:18:21.999Z</time>
      </trkpt>
      <trkpt lat="49.53399" lon="3.82003">
        <ele>139.95</ele>
        <time>2017-10-09T12:18:31.999Z</time>
      </trkpt>
      <trkpt lat="49.53391" lon="3.81986">
        <ele>141.71</ele>
        <time>2017-10-09T12:18:41.999Z</time>
      </trkpt>
      <trkpt lat="49.53383" lon="3.81967">
        <ele>142.81</ele>
        <time>2017-10-09T12:18:51.999Z</time>
      </trkpt>
      <trkpt lat="49.53374" lon="3.81949">
        <ele>143.86</ele>
        <time>2017-10-09T12:19:01.999Z</time>
      </trkpt>
      <trkpt lat="49.53366" lon="3.81928">
        <ele>145.12</ele>
        <time>2017-10-09T12:19:11.999Z</time>
      </trkpt>
      <trkpt lat="49.53359" lon="3.8191">
        <ele>146.55</ele>
        <time>2017-10-09T12:19:21.999Z</time>
      </trkpt>
      <trkpt lat="49.53352" lon="3.81897">
        <ele>146.93</ele>
        <time>2017-10-09T12:19:31.999Z</time>
      </trkpt>
      <trkpt lat="49.53341" lon="3.81884">
        <ele>147.13</ele>
        <time>2017-10-09T12:19:41.999Z</time>
      </trkpt>
      <trkpt lat="49.53332" lon="3.81877">
        <ele>147.53</ele>
        <time>2017-10-09T12:19:51.999Z</time>
      </trkpt>
      <trkpt lat="49.53323" lon="3.81867">
        <ele>147.41</ele>
        <time>2017-10-09T12:20:01.999Z</time>
      </trkpt>
      <trkpt lat="49.53314" lon="3.81856">
        <ele>146.54</ele>
        <time>2017-10-09T12:20:11.999Z</time>
      </trkpt>
      <trkpt lat="49.53307" lon="3.81849">
        <ele>145.35</ele>
        <time>2017-10-09T12:20:21.999Z</time>
      </trkpt>
      <trkpt lat="49.53299" lon="3.81843">
        <ele>144.59</ele>
        <time>2017-10-09T12:20:31.999Z</time>
      </trkpt>
      <trkpt lat="49.5329" lon="3.8185">
        <ele>144.56</ele>
        <time>2017-10-09T12:20:41.000Z</time>
      </trkpt>
      <trkpt lat="49.53277" lon="3.81854">
        <ele>145.06</ele>
        <time>2017-10-09T12:20:51.000Z</time>
      </trkpt>
      <trkpt lat="49.53268" lon="3.81857">
        <ele>145.97</ele>
        <time>2017-10-09T12:21:01.000Z</time>
      </trkpt>
      <trkpt lat="49.5326" lon="3.8186">
        <ele>146.7</ele>
        <time>2017-10-09T12:21:11.000Z</time>
      </trkpt>
      <trkpt lat="49.53254" lon="3.81855">
        <ele>147.58</ele>
        <time>2017-10-09T12:21:21.000Z</time>
      </trkpt>
      <trkpt lat="49.53246" lon="3.81858">
        <ele>148.41</ele>
        <time>2017-10-09T12:21:31.000Z</time>
      </trkpt>
      <trkpt lat="49.53238" lon="3.81854">
        <ele>149.49</ele>
        <time>2017-10-09T12:21:41.000Z</time>
      </trkpt>
      <trkpt lat="49.53235" lon="3.81854">
        <ele>150.28</ele>
        <time>2017-10-09T12:21:51.000Z</time>
      </trkpt>
      <trkpt lat="49.53232" lon="3.81852">
        <ele>150.48</ele>
        <time>2017-10-09T12:22:01.000Z</time>
      </trkpt>
      <trkpt lat="49.53223" lon="3.8185">
        <ele>150.21</ele>
        <time>2017-10-09T12:22:11.000Z</time>
      </trkpt>
      <trkpt lat="49.53209" lon="3.81847">
        <ele>150.48</ele>
        <time>2017-10-09T12:22:21.000Z</time>
      </trkpt>
      <trkpt lat="49.53206" lon="3.81847">
        <ele>151.14</ele>
        <time>2017-10-09T12:22:31.000Z</time>
      </trkpt>
      <trkpt lat="49.53198" lon="3.81852">
        <ele>152.45</ele>
        <time>2017-10-09T12:22:41.000Z</time>
      </trkpt>
      <trkpt lat="49.53188" lon="3.81857">
        <ele>153.84</ele>
        <time>2017-10-09T12:22:51.000Z</time>
      </trkpt>
      <trkpt lat="49.53176" lon="3.81859">
        <ele>155.09</ele>
        <time>2017-10-09T12:23:01.000Z</time>
      </trkpt>
      <trkpt lat="49.53165" lon="3.81857">
        <ele>156.19</ele>
        <time>2017-10-09T12:23:11.000Z</time>
      </trkpt>
      <trkpt lat="49.53162" lon="3.81859">
        <ele>158.06</ele>
        <time>2017-10-09T12:23:21.000Z</time>
      </trkpt>
      <trkpt lat="49.53156" lon="3.81863">
        <ele>160.2</ele>
        <time>2017-10-09T12:23:31.000Z</time>
      </trkpt>
      <trkpt lat="49.53152" lon="3.81866">
        <ele>161.93</ele>
        <time>2017-10-09T12:23:41.000Z</time>
      </trkpt>
      <trkpt lat="49.53146" lon="3.81875">
        <ele>163.06</ele>
        <time>2017-10-09T12:23:51.000Z</time>
      </trkpt>
      <trkpt lat="49.53141" lon="3.81875">
        <ele>163.65</ele>
        <time>2017-10-09T12:24:01.000Z</time>
      </trkpt>
      <trkpt lat="49.53137" lon="3.81874">
        <ele>163.68</ele>
        <time>2017-10-09T12:24:11.000Z</time>
      </trkpt>
      <trkpt lat="49.53134" lon="3.81877">
        <ele>163.87</ele>
        <time>2017-10-09T12:24:21.000Z</time>
      </trkpt>
      <trkpt lat="49.53127" lon="3.81889">
        <ele>164.16</ele>
        <time>2017-10-09T12:24:31.000Z</time>
      </trkpt>
      <trkpt lat="49.53123" lon="3.81899">
        <ele>164.21</ele>
        <time>2017-10-09T12:24:41.000Z</time>
      </trkpt>
      <trkpt lat="49.53118" lon="3.81907">
        <ele>163.74</ele>
        <time>2017-10-09T12:24:51.000Z</time>
      </trkpt>
      <trkpt lat="49.53109" lon="3.81918">
        <ele>163.63</ele>
        <time>2017-10-09T12:25:01.000Z</time>
      </trkpt>
      <trkpt lat="49.531" lon="3.81927">
        <ele>163.75</ele>
        <time>2017-10-09T12:25:11.000Z</time>
      </trkpt>
      <trkpt lat="49.53096" lon="3.81929">
        <ele>163.91</ele>
        <time>2017-10-09T12:25:21.000Z</time>
      </trkpt>
      <trkpt lat="49.53083" lon="3.81939">
        <ele>165.33</ele>
        <time>2017-10-09T12:25:31.000Z</time>
      </trkpt>
      <trkpt lat="49.53073" lon="3.81948">
        <ele>167.07</ele>
        <time>2017-10-09T12:25:41.000Z</time>
      </trkpt>
      <trkpt lat="49.53059" lon="3.81957">
        <ele>169.16</ele>
        <time>2017-10-09T12:25:51.000Z</time>
      </trkpt>
      <trkpt lat="49.53047" lon="3.81963">
        <ele>171.02</ele>
        <time>2017-10-09T12:26:01.000Z</time>
      </trkpt>
      <trkpt lat="49.53035" lon="3.81967">
        <ele>172.81</ele>
        <time>2017-10-09T12:26:11.000Z</time>
      </trkpt>
      <trkpt lat="49.53025" lon="3.81973">
        <ele>174.16</ele>
        <time>2017-10-09T12:26:21.000Z</time>
      </trkpt>
      <trkpt lat="49.53013" lon="3.81978">
        <ele>175.57</ele>
        <time>2017-10-09T12:26:31.000Z</time>
      </trkpt>
      <trkpt lat="49.52999" lon="3.81984">
        <ele>176.43</ele>
        <time>2017-10-09T12:26:41.000Z</time>
      </trkpt>
      <trkpt lat="49.52985" lon="3.8199">
        <ele>177.38</ele>
        <time>2017-10-09T12:26:51.000Z</time>
      </trkpt>
      <trkpt lat="49.5298" lon="3.81989">
        <ele>178.16</ele>
        <time>2017-10-09T12:27:01.000Z</time>
      </trkpt>
      <trkpt lat="49.52972" lon="3.81996">
        <ele>178.55</ele>
        <time>2017-10-09T12:27:11.000Z</time>
      </trkpt>
      <trkpt lat="49.52961" lon="3.82001">
        <ele>178.69</ele>
        <time>2017-10-09T12:27:21.000Z</time>
      </trkpt>
      <trkpt lat="49.52954" lon="3.8201">
        <ele>178.72</ele>
        <time>2017-10-09T12:27:31.000Z</time>
      </trkpt>
      <trkpt lat="49.52951" lon="3.82023">
        <ele>178.8</ele>
        <time>2017-10-09T12:27:41.000Z</time>
      </trkpt>
      <trkpt lat="49.52947" lon="3.82034">
        <ele>179</ele>
        <time>2017-10-09T12:27:51.000Z</time>
      </trkpt>
      <trkpt lat="49.52943" lon="3.82052">
        <ele>178.92</ele>
        <time>2017-10-09T12:28:01.000Z</time>
      </trkpt>
      <trkpt lat="49.52937" lon="3.82063">
        <ele>178.91</ele>
        <time>2017-10-09T12:28:11.000Z</time>
      </trkpt>
      <trkpt lat="49.52924" lon="3.82078">
        <ele>179.09</ele>
        <time>2017-10-09T12:28:21.000Z</time>
      </trkpt>
      <trkpt lat="49.52917" lon="3.82081">
        <ele>179.86</ele>
        <time>2017-10-09T12:28:31.000Z</time>
      </trkpt>
      <trkpt lat="49.52902" lon="3.82086">
        <ele>180.83</ele>
        <time>2017-10-09T12:28:41.000Z</time>
      </trkpt>
      <trkpt lat="49.52894" lon="3.82089">
        <ele>182.55</ele>
        <time>2017-10-09T12:28:51.000Z</time>
      </trkpt>
      <trkpt lat="49.52881" lon="3.82099">
        <ele>184.95</ele>
        <time>2017-10-09T12:29:01.000Z</time>
      </trkpt>
      <trkpt lat="49.52875" lon="3.82103">
        <ele>187.75</ele>
        <time>2017-10-09T12:29:11.000Z</time>
      </trkpt>
      <trkpt lat="49.52866" lon="3.82108">
        <ele>190.24</ele>
        <time>2017-10-09T12:29:21.000Z</time>
      </trkpt>
      <trkpt lat="49.52854" lon="3.82118">
        <ele>193.06</ele>
        <time>2017-10-09T12:29:31.000Z</time>
      </trkpt>
      <trkpt lat="49.52848" lon="3.82124">
        <ele>194.73</ele>
        <time>2017-10-09T12:29:41.000Z</time>
      </trkpt>
      <trkpt lat="49.52841" lon="3.82133">
        <ele>195.47</ele>
        <time>2017-10-09T12:29:51.000Z</time>
      </trkpt>
      <trkpt lat="49.52833" lon="3.82142">
        <ele>196.25</ele>
        <time>2017-10-09T12:30:01.000Z</time>
      </trkpt>
      <trkpt lat="49.52817" lon="3.82149">
        <ele>197.22</ele>
        <time>2017-10-09T12:30:11.000Z</time>
      </trkpt>
      <trkpt lat="49.52811" lon="3.82152">
        <ele>197.99</ele>
        <time>2017-10-09T12:30:21.000Z</time>
      </trkpt>
      <trkpt lat="49.52802" lon="3.82159">
        <ele>198.83</ele>
        <time>2017-10-09T12:30:31.000Z</time>
      </trkpt>
      <trkpt lat="49.52794" lon="3.82161">
        <ele>199.97</ele>
        <time>2017-10-09T12:30:41.000Z</time>
      </trkpt>
      <trkpt lat="49.52781" lon="3.8217">
        <ele>201</ele>
        <time>2017-10-09T12:30:51.000Z</time>
      </trkpt>
      <trkpt lat="49.52768" lon="3.8218">
        <ele>202.11</ele>
        <time>2017-10-09T12:31:01.000Z</time>
      </trkpt>
      <trkpt lat="49.52759" lon="3.82193">
        <ele>203.11</ele>
        <time>2017-10-09T12:31:11.000Z</time>
      </trkpt>
      <trkpt lat="49.52748" lon="3.82197">
        <ele>204.03</ele>
        <time>2017-10-09T12:31:21.000Z</time>
      </trkpt>
      <trkpt lat="49.52742" lon="3.82202">
        <ele>204.97</ele>
        <time>2017-10-09T12:31:31.000Z</time>
      </trkpt>
      <trkpt lat="49.52734" lon="3.82213">
        <ele>205.34</ele>
        <time>2017-10-09T12:31:41.000Z</time>
      </trkpt>
      <trkpt lat="49.52733" lon="3.82213">
        <ele>205.46</ele>
        <time>2017-10-09T12:31:56.000Z</time>
      </trkpt>
      <trkpt lat="49.5273" lon="3.82216">
        <ele>205.62</ele>
        <time>2017-10-09T12:32:06.000Z</time>
      </trkpt>
      <trkpt lat="49.52719" lon="3.82229">
        <ele>205.09</ele>
        <time>2017-10-09T12:32:16.000Z</time>
      </trkpt>
      <trkpt lat="49.52706" lon="3.82236">
        <ele>204.53</ele>
        <time>2017-10-09T12:32:26.000Z</time>
      </trkpt>
      <trkpt lat="49.52692" lon="3.82245">
        <ele>203.72</ele>
        <time>2017-10-09T12:32:36.000Z</time>
      </trkpt>
      <trkpt lat="49.52681" lon="3.82252">
        <ele>202.89</ele>
        <time>2017-10-09T12:32:46.000Z</time>
      </trkpt>
      <trkpt lat="49.52669" lon="3.82259">
        <ele>202.13</ele>
        <time>2017-10-09T12:32:56.000Z</time>
      </trkpt>
      <trkpt lat="49.5266" lon="3.82268">
        <ele>201.66</ele>
        <time>2017-10-09T12:33:06.000Z</time>
      </trkpt>
      <trkpt lat="49.52653" lon="3.82276">
        <ele>201.01</ele>
        <time>2017-10-09T12:33:16.000Z</time>
      </trkpt>
      <trkpt lat="49.52639" lon="3.82286">
        <ele>200.9</ele>
        <time>2017-10-09T12:33:26.000Z</time>
      </trkpt>
      <trkpt lat="49.52629" lon="3.82297">
        <ele>201.43</ele>
        <time>2017-10-09T12:33:36.000Z</time>
      </trkpt>
      <trkpt lat="49.5262" lon="3.82305">
        <ele>202.09</ele>
        <time>2017-10-09T12:33:46.000Z</time>
      </trkpt>
      <trkpt lat="49.52607" lon="3.82313">
        <ele>202.67</ele>
        <time>2017-10-09T12:33:56.000Z</time>
      </trkpt>
      <trkpt lat="49.52597" lon="3.82318">
        <ele>203.42</ele>
        <time>2017-10-09T12:34:06.000Z</time>
      </trkpt>
      <trkpt lat="49.52585" lon="3.82324">
        <ele>204.15</ele>
        <time>2017-10-09T12:34:16.000Z</time>
      </trkpt>
      <trkpt lat="49.52583" lon="3.82326">
        <ele>204.17</ele>
        <time>2017-10-09T12:34:26.000Z</time>
      </trkpt>
      <trkpt lat="49.52581" lon="3.82325">
        <ele>204.27</ele>
        <time>2017-10-09T12:34:36.000Z</time>
      </trkpt>
      <trkpt lat="49.52577" lon="3.82327">
        <ele>204.77</ele>
        <time>2017-10-09T12:34:46.000Z</time>
      </trkpt>
      <trkpt lat="49.52575" lon="3.82328">
        <ele>205.15</ele>
        <time>2017-10-09T12:34:56.000Z</time>
      </trkpt>
      <trkpt lat="49.52574" lon="3.82329">
        <ele>206.35</ele>
        <time>2017-10-09T12:35:21.000Z</time>
      </trkpt>
      <trkpt lat="49.52576" lon="3.82324">
        <ele>209.26</ele>
        <time>2017-10-09T12:35:31.000Z</time>
      </trkpt>
      <trkpt lat="49.52582" lon="3.82339">
        <ele>211.24</ele>
        <time>2017-10-09T12:35:41.000Z</time>
      </trkpt>
      <trkpt lat="49.52583" lon="3.82336">
        <ele>212.38</ele>
        <time>2017-10-09T12:35:52.000Z</time>
      </trkpt>
      <trkpt lat="49.5258" lon="3.82333">
        <ele>213.02</ele>
        <time>2017-10-09T12:36:02.000Z</time>
      </trkpt>
      <trkpt lat="49.5258" lon="3.82335">
        <ele>212.94</ele>
        <time>2017-10-09T12:36:18.000Z</time>
      </trkpt>
      <trkpt lat="49.5258" lon="3.82337">
        <ele>213.15</ele>
        <time>2017-10-09T12:36:31.000Z</time>
      </trkpt>
      <trkpt lat="49.52584" lon="3.82341">
        <ele>214.09</ele>
        <time>2017-10-09T12:36:41.000Z</time>
      </trkpt>
      <trkpt lat="49.52584" lon="3.82343">
        <ele>214.57</ele>
        <time>2017-10-09T12:36:51.000Z</time>
      </trkpt>
      <trkpt lat="49.52585" lon="3.82341">
        <ele>215.17</ele>
        <time>2017-10-09T12:37:09.000Z</time>
      </trkpt>
      <trkpt lat="49.52584" lon="3.8234">
        <ele>215.24</ele>
        <time>2017-10-09T12:37:21.000Z</time>
      </trkpt>
      <trkpt lat="49.52584" lon="3.82339">
        <ele>215.23</ele>
        <time>2017-10-09T12:37:41.000Z</time>
      </trkpt>
      <trkpt lat="49.52584" lon="3.82337">
        <ele>215.17</ele>
        <time>2017-10-09T12:37:51.000Z</time>
      </trkpt>
      <trkpt lat="49.52583" lon="3.82337">
        <ele>215.23</ele>
        <time>2017-10-09T12:38:28.000Z</time>
      </trkpt>
      <trkpt lat="49.52578" lon="3.82337">
        <ele>215.01</ele>
        <time>2017-10-09T12:38:38.000Z</time>
      </trkpt>
      <trkpt lat="49.52571" lon="3.8234">
        <ele>214.79</ele>
        <time>2017-10-09T12:38:48.000Z</time>
      </trkpt>
      <trkpt lat="49.52565" lon="3.82342">
        <ele>214.11</ele>
        <time>2017-10-09T12:38:58.000Z</time>
      </trkpt>
      <trkpt lat="49.52555" lon="3.8235">
        <ele>212.9</ele>
        <time>2017-10-09T12:39:08.000Z</time>
      </trkpt>
      <trkpt lat="49.5254" lon="3.82356">
        <ele>210.62</ele>
        <time>2017-10-09T12:39:18.000Z</time>
      </trkpt>
      <trkpt lat="49.52526" lon="3.82357">
        <ele>207.35</ele>
        <time>2017-10-09T12:39:28.000Z</time>
      </trkpt>
      <trkpt lat="49.52513" lon="3.82356">
        <ele>204.22</ele>
        <time>2017-10-09T12:39:38.000Z</time>
      </trkpt>
      <trkpt lat="49.52502" lon="3.82356">
        <ele>201.78</ele>
        <time>2017-10-09T12:39:48.000Z</time>
      </trkpt>
      <trkpt lat="49.52491" lon="3.82353">
        <ele>199.85</ele>
        <time>2017-10-09T12:39:58.000Z</time>
      </trkpt>
      <trkpt lat="49.52483" lon="3.82349">
        <ele>198.14</ele>
        <time>2017-10-09T12:40:08.000Z</time>
      </trkpt>
      <trkpt lat="49.52472" lon="3.82347">
        <ele>196.68</ele>
        <time>2017-10-09T12:40:18.000Z</time>
      </trkpt>
      <trkpt lat="49.5246" lon="3.82346">
        <ele>195.25</ele>
        <time>2017-10-09T12:40:28.000Z</time>
      </trkpt>
      <trkpt lat="49.5245" lon="3.82347">
        <ele>193.93</ele>
        <time>2017-10-09T12:40:38.000Z</time>
      </trkpt>
      <trkpt lat="49.52436" lon="3.82344">
        <ele>192.53</ele>
        <time>2017-10-09T12:40:48.000Z</time>
      </trkpt>
      <trkpt lat="49.52426" lon="3.82341">
        <ele>190.62</ele>
        <time>2017-10-09T12:40:58.000Z</time>
      </trkpt>
      <trkpt lat="49.52415" lon="3.82345">
        <ele>188.72</ele>
        <time>2017-10-09T12:41:08.000Z</time>
      </trkpt>
      <trkpt lat="49.52401" lon="3.82349">
        <ele>187.16</ele>
        <time>2017-10-09T12:41:18.000Z</time>
      </trkpt>
      <trkpt lat="49.52387" lon="3.82348">
        <ele>186.53</ele>
        <time>2017-10-09T12:41:28.000Z</time>
      </trkpt>
      <trkpt lat="49.52371" lon="3.82348">
        <ele>186.47</ele>
        <time>2017-10-09T12:41:38.000Z</time>
      </trkpt>
      <trkpt lat="49.52358" lon="3.82346">
        <ele>187.05</ele>
        <time>2017-10-09T12:41:48.000Z</time>
      </trkpt>
      <trkpt lat="49.52348" lon="3.82342">
        <ele>187.02</ele>
        <time>2017-10-09T12:41:58.000Z</time>
      </trkpt>
      <trkpt lat="49.52338" lon="3.82339">
        <ele>186.56</ele>
        <time>2017-10-09T12:42:08.000Z</time>
      </trkpt>
      <trkpt lat="49.52324" lon="3.82337">
        <ele>186.32</ele>
        <time>2017-10-09T12:42:18.000Z</time>
      </trkpt>
      <trkpt lat="49.52312" lon="3.82343">
        <ele>186.31</ele>
        <time>2017-10-09T12:42:28.000Z</time>
      </trkpt>
      <trkpt lat="49.52302" lon="3.82349">
        <ele>187.11</ele>
        <time>2017-10-09T12:42:38.000Z</time>
      </trkpt>
      <trkpt lat="49.52292" lon="3.82353">
        <ele>188.29</ele>
        <time>2017-10-09T12:42:48.000Z</time>
      </trkpt>
      <trkpt lat="49.52281" lon="3.82356">
        <ele>188.87</ele>
        <time>2017-10-09T12:42:58.000Z</time>
      </trkpt>
      <trkpt lat="49.52268" lon="3.82361">
        <ele>188.22</ele>
        <time>2017-10-09T12:43:08.000Z</time>
      </trkpt>
      <trkpt lat="49.52253" lon="3.82351">
        <ele>187.03</ele>
        <time>2017-10-09T12:43:18.000Z</time>
      </trkpt>
      <trkpt lat="49.52238" lon="3.8234">
        <ele>185.78</ele>
        <time>2017-10-09T12:43:28.000Z</time>
      </trkpt>
      <trkpt lat="49.52227" lon="3.82328">
        <ele>184.87</ele>
        <time>2017-10-09T12:43:38.000Z</time>
      </trkpt>
      <trkpt lat="49.52228" lon="3.82327">
        <ele>184.96</ele>
        <time>2017-10-09T12:44:02.000Z</time>
      </trkpt>
      <trkpt lat="49.52228" lon="3.82326">
        <ele>185.05</ele>
        <time>2017-10-09T12:44:12.000Z</time>
      </trkpt>
      <trkpt lat="49.52229" lon="3.82325">
        <ele>186.27</ele>
        <time>2017-10-09T12:44:50.000Z</time>
      </trkpt>
      <trkpt lat="49.5222" lon="3.82315">
        <ele>188.58</ele>
        <time>2017-10-09T12:45:00.000Z</time>
      </trkpt>
      <trkpt lat="49.52209" lon="3.82303">
        <ele>189.57</ele>
        <time>2017-10-09T12:45:10.000Z</time>
      </trkpt>
      <trkpt lat="49.522" lon="3.82299">
        <ele>189.61</ele>
        <time>2017-10-09T12:45:20.000Z</time>
      </trkpt>
      <trkpt lat="49.52193" lon="3.82292">
        <ele>188.7</ele>
        <time>2017-10-09T12:45:30.000Z</time>
      </trkpt>
      <trkpt lat="49.52186" lon="3.82283">
        <ele>187.5</ele>
        <time>2017-10-09T12:45:39.999Z</time>
      </trkpt>
      <trkpt lat="49.5218" lon="3.82276">
        <ele>186.79</ele>
        <time>2017-10-09T12:45:49.999Z</time>
      </trkpt>
      <trkpt lat="49.52177" lon="3.82273">
        <ele>186.72</ele>
        <time>2017-10-09T12:45:59.999Z</time>
      </trkpt>
      <trkpt lat="49.52165" lon="3.82257">
        <ele>186.78</ele>
        <time>2017-10-09T12:46:09.999Z</time>
      </trkpt>
      <trkpt lat="49.52157" lon="3.82245">
        <ele>187.15</ele>
        <time>2017-10-09T12:46:19.999Z</time>
      </trkpt>
      <trkpt lat="49.52149" lon="3.82237">
        <ele>187.3</ele>
        <time>2017-10-09T12:46:29.999Z</time>
      </trkpt>
      <trkpt lat="49.52139" lon="3.82224">
        <ele>187.32</ele>
        <time>2017-10-09T12:46:39.999Z</time>
      </trkpt>
      <trkpt lat="49.52131" lon="3.82208">
        <ele>188.04</ele>
        <time>2017-10-09T12:46:49.999Z</time>
      </trkpt>
      <trkpt lat="49.52126" lon="3.82197">
        <ele>189.44</ele>
        <time>2017-10-09T12:46:59.999Z</time>
      </trkpt>
      <trkpt lat="49.5212" lon="3.82192">
        <ele>190.74</ele>
        <time>2017-10-09T12:47:09.999Z</time>
      </trkpt>
      <trkpt lat="49.52113" lon="3.82182">
        <ele>192.18</ele>
        <time>2017-10-09T12:47:19.999Z</time>
      </trkpt>
      <trkpt lat="49.52102" lon="3.8217">
        <ele>194.14</ele>
        <time>2017-10-09T12:47:29.999Z</time>
      </trkpt>
      <trkpt lat="49.52089" lon="3.82162">
        <ele>195.77</ele>
        <time>2017-10-09T12:47:39.999Z</time>
      </trkpt>
      <trkpt lat="49.5208" lon="3.82155">
        <ele>197.41</ele>
        <time>2017-10-09T12:47:49.999Z</time>
      </trkpt>
      <trkpt lat="49.5207" lon="3.82148">
        <ele>198.31</ele>
        <time>2017-10-09T12:47:59.999Z</time>
      </trkpt>
      <trkpt lat="49.52058" lon="3.82143">
        <ele>199.31</ele>
        <time>2017-10-09T12:48:09.999Z</time>
      </trkpt>
      <trkpt lat="49.52047" lon="3.82138">
        <ele>200.16</ele>
        <time>2017-10-09T12:48:19.999Z</time>
      </trkpt>
      <trkpt lat="49.52036" lon="3.82127">
        <ele>200.92</ele>
        <time>2017-10-09T12:48:29.999Z</time>
      </trkpt>
      <trkpt lat="49.52027" lon="3.82118">
        <ele>201.78</ele>
        <time>2017-10-09T12:48:39.999Z</time>
      </trkpt>
      <trkpt lat="49.52015" lon="3.82113">
        <ele>202.5</ele>
        <time>2017-10-09T12:48:49.999Z</time>
      </trkpt>
      <trkpt lat="49.52004" lon="3.82107">
        <ele>202.27</ele>
        <time>2017-10-09T12:48:59.999Z</time>
      </trkpt>
      <trkpt lat="49.51989" lon="3.821">
        <ele>201.17</ele>
        <time>2017-10-09T12:49:09.999Z</time>
      </trkpt>
      <trkpt lat="49.51979" lon="3.82093">
        <ele>201.05</ele>
        <time>2017-10-09T12:49:19.999Z</time>
      </trkpt>
      <trkpt lat="49.51968" lon="3.82084">
        <ele>200.71</ele>
        <time>2017-10-09T12:49:29.999Z</time>
      </trkpt>
      <trkpt lat="49.51957" lon="3.82074">
        <ele>200.44</ele>
        <time>2017-10-09T12:49:39.999Z</time>
      </trkpt>
      <trkpt lat="49.51949" lon="3.82066">
        <ele>200.64</ele>
        <time>2017-10-09T12:49:49.999Z</time>
      </trkpt>
      <trkpt lat="49.51941" lon="3.82057">
        <ele>201.34</ele>
        <time>2017-10-09T12:49:59.999Z</time>
      </trkpt>
      <trkpt lat="49.51937" lon="3.82046">
        <ele>201.88</ele>
        <time>2017-10-09T12:50:09.999Z</time>
      </trkpt>
      <trkpt lat="49.51926" lon="3.82028">
        <ele>202.32</ele>
        <time>2017-10-09T12:50:19.999Z</time>
      </trkpt>
      <trkpt lat="49.51917" lon="3.82015">
        <ele>202.68</ele>
        <time>2017-10-09T12:50:29.999Z</time>
      </trkpt>
      <trkpt lat="49.51913" lon="3.82008">
        <ele>202.52</ele>
        <time>2017-10-09T12:50:39.999Z</time>
      </trkpt>
      <trkpt lat="49.51907" lon="3.81995">
        <ele>202.48</ele>
        <time>2017-10-09T12:50:49.999Z</time>
      </trkpt>
      <trkpt lat="49.51895" lon="3.81982">
        <ele>202.74</ele>
        <time>2017-10-09T12:50:59.999Z</time>
      </trkpt>
      <trkpt lat="49.51883" lon="3.81969">
        <ele>203.2</ele>
        <time>2017-10-09T12:51:09.999Z</time>
      </trkpt>
      <trkpt lat="49.5187" lon="3.81957">
        <ele>203.93</ele>
        <time>2017-10-09T12:51:19.999Z</time>
      </trkpt>
      <trkpt lat="49.51861" lon="3.81949">
        <ele>204.82</ele>
        <time>2017-10-09T12:51:29.999Z</time>
      </trkpt>
      <trkpt lat="49.5186" lon="3.81947">
        <ele>205.1</ele>
        <time>2017-10-09T12:51:39.999Z</time>
      </trkpt>
      <trkpt lat="49.51858" lon="3.81947">
        <ele>205.28</ele>
        <time>2017-10-09T12:52:17.999Z</time>
      </trkpt>
      <trkpt lat="49.5185" lon="3.81944">
        <ele>206.07</ele>
        <time>2017-10-09T12:52:27.999Z</time>
      </trkpt>
      <trkpt lat="49.51843" lon="3.81943">
        <ele>206.9</ele>
        <time>2017-10-09T12:52:37.999Z</time>
      </trkpt>
      <trkpt lat="49.51845" lon="3.81944">
        <ele>207.1</ele>
        <time>2017-10-09T12:52:47.999Z</time>
      </trkpt>
      <trkpt lat="49.51847" lon="3.81945">
        <ele>207.51</ele>
        <time>2017-10-09T12:52:57.999Z</time>
      </trkpt>
      <trkpt lat="49.51847" lon="3.81945">
        <ele>207.83</ele>
        <time>2017-10-09T12:53:09.999Z</time>
      </trkpt>
      <trkpt lat="49.51845" lon="3.81931">
        <ele>208.45</ele>
        <time>2017-10-09T12:53:19.999Z</time>
      </trkpt>
      <trkpt lat="49.51847" lon="3.81932">
        <ele>208.85</ele>
        <time>2017-10-09T12:53:29.999Z</time>
      </trkpt>
      <trkpt lat="49.51853" lon="3.81924">
        <ele>208.67</ele>
        <time>2017-10-09T12:53:39.999Z</time>
      </trkpt>
      <trkpt lat="49.5186" lon="3.8191">
        <ele>207.86</ele>
        <time>2017-10-09T12:53:49.999Z</time>
      </trkpt>
      <trkpt lat="49.51866" lon="3.81895">
        <ele>206.65</ele>
        <time>2017-10-09T12:53:59.999Z</time>
      </trkpt>
      <trkpt lat="49.51876" lon="3.81878">
        <ele>205.43</ele>
        <time>2017-10-09T12:54:09.999Z</time>
      </trkpt>
      <trkpt lat="49.51887" lon="3.81863">
        <ele>204.38</ele>
        <time>2017-10-09T12:54:19.999Z</time>
      </trkpt>
      <trkpt lat="49.519" lon="3.81846">
        <ele>203.72</ele>
        <time>2017-10-09T12:54:29.999Z</time>
      </trkpt>
      <trkpt lat="49.51911" lon="3.81831">
        <ele>203.27</ele>
        <time>2017-10-09T12:54:39.999Z</time>
      </trkpt>
      <trkpt lat="49.51921" lon="3.81813">
        <ele>203.11</ele>
        <time>2017-10-09T12:54:49.999Z</time>
      </trkpt>
      <trkpt lat="49.51931" lon="3.81798">
        <ele>203.12</ele>
        <time>2017-10-09T12:54:59.999Z</time>
      </trkpt>
      <trkpt lat="49.5194" lon="3.81784">
        <ele>203.87</ele>
        <time>2017-10-09T12:55:09.999Z</time>
      </trkpt>
      <trkpt lat="49.51948" lon="3.81767">
        <ele>204.94</ele>
        <time>2017-10-09T12:55:19.999Z</time>
      </trkpt>
      <trkpt lat="49.51954" lon="3.81751">
        <ele>205.76</ele>
        <time>2017-10-09T12:55:29.999Z</time>
      </trkpt>
      <trkpt lat="49.51963" lon="3.81735">
        <ele>205.5</ele>
        <time>2017-10-09T12:55:39.999Z</time>
      </trkpt>
      <trkpt lat="49.51972" lon="3.81719">
        <ele>204.9</ele>
        <time>2017-10-09T12:55:49.999Z</time>
      </trkpt>
      <trkpt lat="49.51981" lon="3.81702">
        <ele>203.71</ele>
        <time>2017-10-09T12:55:59.999Z</time>
      </trkpt>
      <trkpt lat="49.51989" lon="3.81687">
        <ele>202.61</ele>
        <time>2017-10-09T12:56:09.999Z</time>
      </trkpt>
      <trkpt lat="49.51997" lon="3.8167">
        <ele>201.89</ele>
        <time>2017-10-09T12:56:19.999Z</time>
      </trkpt>
      <trkpt lat="49.52006" lon="3.81652">
        <ele>201.12</ele>
        <time>2017-10-09T12:56:29.999Z</time>
      </trkpt>
      <trkpt lat="49.52015" lon="3.81639">
        <ele>200.12</ele>
        <time>2017-10-09T12:56:39.999Z</time>
      </trkpt>
      <trkpt lat="49.52026" lon="3.81629">
        <ele>198.97</ele>
        <time>2017-10-09T12:56:49.999Z</time>
      </trkpt>
      <trkpt lat="49.52042" lon="3.81622">
        <ele>198</ele>
        <time>2017-10-09T12:56:59.999Z</time>
      </trkpt>
      <trkpt lat="49.52046" lon="3.81611">
        <ele>197.38</ele>
        <time>2017-10-09T12:57:09.999Z</time>
      </trkpt>
      <trkpt lat="49.52046" lon="3.81596">
        <ele>195.85</ele>
        <time>2017-10-09T12:57:19.999Z</time>
      </trkpt>
      <trkpt lat="49.52049" lon="3.81588">
        <ele>193.31</ele>
        <time>2017-10-09T12:57:29.999Z</time>
      </trkpt>
      <trkpt lat="49.52053" lon="3.8158">
        <ele>190.01</ele>
        <time>2017-10-09T12:57:39.999Z</time>
      </trkpt>
      <trkpt lat="49.52061" lon="3.81568">
        <ele>185.95</ele>
        <time>2017-10-09T12:57:49.999Z</time>
      </trkpt>
      <trkpt lat="49.52064" lon="3.81557">
        <ele>181.81</ele>
        <time>2017-10-09T12:57:59.999Z</time>
      </trkpt>
      <trkpt lat="49.52087" lon="3.81548">
        <ele>177.79</ele>
        <time>2017-10-09T12:58:09.999Z</time>
      </trkpt>
      <trkpt lat="49.52096" lon="3.81542">
        <ele>175.42</ele>
        <time>2017-10-09T12:58:19.999Z</time>
      </trkpt>
      <trkpt lat="49.52099" lon="3.81535">
        <ele>175.15</ele>
        <time>2017-10-09T12:58:29.999Z</time>
      </trkpt>
      <trkpt lat="49.52107" lon="3.81531">
        <ele>176.08</ele>
        <time>2017-10-09T12:58:39.999Z</time>
      </trkpt>
      <trkpt lat="49.5211" lon="3.81532">
        <ele>177.18</ele>
        <time>2017-10-09T12:58:49.999Z</time>
      </trkpt>
      <trkpt lat="49.52118" lon="3.81526">
        <ele>178.49</ele>
        <time>2017-10-09T12:58:59.999Z</time>
      </trkpt>
      <trkpt lat="49.52121" lon="3.81526">
        <ele>179.43</ele>
        <time>2017-10-09T12:59:09.999Z</time>
      </trkpt>
      <trkpt lat="49.5213" lon="3.81519">
        <ele>180.56</ele>
        <time>2017-10-09T12:59:19.999Z</time>
      </trkpt>
      <trkpt lat="49.52138" lon="3.81503">
        <ele>181.2</ele>
        <time>2017-10-09T12:59:29.999Z</time>
      </trkpt>
      <trkpt lat="49.52138" lon="3.81505">
        <ele>181.19</ele>
        <time>2017-10-09T12:59:39.999Z</time>
      </trkpt>
      <trkpt lat="49.52141" lon="3.81506">
        <ele>180.84</ele>
        <time>2017-10-09T12:59:49.999Z</time>
      </trkpt>
      <trkpt lat="49.52149" lon="3.81512">
        <ele>180.09</ele>
        <time>2017-10-09T12:59:59.999Z</time>
      </trkpt>
      <trkpt lat="49.52157" lon="3.81521">
        <ele>179.61</ele>
        <time>2017-10-09T13:00:09.999Z</time>
      </trkpt>
      <trkpt lat="49.52164" lon="3.81527">
        <ele>179.05</ele>
        <time>2017-10-09T13:00:19.999Z</time>
      </trkpt>
      <trkpt lat="49.5217" lon="3.81533">
        <ele>178.16</ele>
        <time>2017-10-09T13:00:29.999Z</time>
      </trkpt>
      <trkpt lat="49.52177" lon="3.81535">
        <ele>176.99</ele>
        <time>2017-10-09T13:00:39.999Z</time>
      </trkpt>
      <trkpt lat="49.52183" lon="3.81539">
        <ele>176.59</ele>
        <time>2017-10-09T13:00:49.999Z</time>
      </trkpt>
      <trkpt lat="49.5219" lon="3.81543">
        <ele>176.49</ele>
        <time>2017-10-09T13:00:59.999Z</time>
      </trkpt>
      <trkpt lat="49.52199" lon="3.81548">
        <ele>175.71</ele>
        <time>2017-10-09T13:01:09.999Z</time>
      </trkpt>
      <trkpt lat="49.52205" lon="3.81551">
        <ele>173.87</ele>
        <time>2017-10-09T13:01:19.999Z</time>
      </trkpt>
      <trkpt lat="49.52217" lon="3.81558">
        <ele>172.08</ele>
        <time>2017-10-09T13:01:29.999Z</time>
      </trkpt>
      <trkpt lat="49.52225" lon="3.81563">
        <ele>170.73</ele>
        <time>2017-10-09T13:01:39.999Z</time>
      </trkpt>
      <trkpt lat="49.52233" lon="3.81569">
        <ele>169.57</ele>
        <time>2017-10-09T13:01:49.999Z</time>
      </trkpt>
      <trkpt lat="49.52241" lon="3.8157">
        <ele>168.76</ele>
        <time>2017-10-09T13:01:59.999Z</time>
      </trkpt>
      <trkpt lat="49.52249" lon="3.81572">
        <ele>168.09</ele>
        <time>2017-10-09T13:02:09.999Z</time>
      </trkpt>
      <trkpt lat="49.52258" lon="3.81574">
        <ele>167.12</ele>
        <time>2017-10-09T13:02:19.999Z</time>
      </trkpt>
      <trkpt lat="49.52267" lon="3.81576">
        <ele>165.85</ele>
        <time>2017-10-09T13:02:29.999Z</time>
      </trkpt>
      <trkpt lat="49.52272" lon="3.81581">
        <ele>164.91</ele>
        <time>2017-10-09T13:02:39.999Z</time>
      </trkpt>
      <trkpt lat="49.52281" lon="3.81584">
        <ele>163.44</ele>
        <time>2017-10-09T13:02:49.999Z</time>
      </trkpt>
      <trkpt lat="49.52292" lon="3.81584">
        <ele>160.74</ele>
        <time>2017-10-09T13:02:59.999Z</time>
      </trkpt>
      <trkpt lat="49.52302" lon="3.8159">
        <ele>157.78</ele>
        <time>2017-10-09T13:03:09.999Z</time>
      </trkpt>
      <trkpt lat="49.52311" lon="3.81589">
        <ele>155.61</ele>
        <time>2017-10-09T13:03:19.999Z</time>
      </trkpt>
      <trkpt lat="49.52321" lon="3.81584">
        <ele>153.65</ele>
        <time>2017-10-09T13:03:29.999Z</time>
      </trkpt>
      <trkpt lat="49.52328" lon="3.81577">
        <ele>151.42</ele>
        <time>2017-10-09T13:03:39.999Z</time>
      </trkpt>
      <trkpt lat="49.52335" lon="3.81572">
        <ele>149.39</ele>
        <time>2017-10-09T13:03:49.999Z</time>
      </trkpt>
      <trkpt lat="49.52342" lon="3.81568">
        <ele>146.85</ele>
        <time>2017-10-09T13:03:59.999Z</time>
      </trkpt>
      <trkpt lat="49.52353" lon="3.81566">
        <ele>144.67</ele>
        <time>2017-10-09T13:04:09.999Z</time>
      </trkpt>
      <trkpt lat="49.52367" lon="3.8156">
        <ele>142.66</ele>
        <time>2017-10-09T13:04:19.999Z</time>
      </trkpt>
      <trkpt lat="49.52373" lon="3.81557">
        <ele>140.06</ele>
        <time>2017-10-09T13:04:29.999Z</time>
      </trkpt>
      <trkpt lat="49.52385" lon="3.81549">
        <ele>137.91</ele>
        <time>2017-10-09T13:04:39.999Z</time>
      </trkpt>
      <trkpt lat="49.52393" lon="3.81543">
        <ele>136.05</ele>
        <time>2017-10-09T13:04:49.999Z</time>
      </trkpt>
      <trkpt lat="49.52402" lon="3.81532">
        <ele>134.36</ele>
        <time>2017-10-09T13:04:59.999Z</time>
      </trkpt>
      <trkpt lat="49.52415" lon="3.81522">
        <ele>132.66</ele>
        <time>2017-10-09T13:05:09.999Z</time>
      </trkpt>
      <trkpt lat="49.52424" lon="3.81515">
        <ele>131.63</ele>
        <time>2017-10-09T13:05:19.999Z</time>
      </trkpt>
      <trkpt lat="49.52433" lon="3.81508">
        <ele>130.83</ele>
        <time>2017-10-09T13:05:29.999Z</time>
      </trkpt>
      <trkpt lat="49.52441" lon="3.81503">
        <ele>129.71</ele>
        <time>2017-10-09T13:05:39.999Z</time>
      </trkpt>
      <trkpt lat="49.52451" lon="3.81496">
        <ele>128.19</ele>
        <time>2017-10-09T13:05:49.999Z</time>
      </trkpt>
      <trkpt lat="49.52461" lon="3.81491">
        <ele>126.61</ele>
        <time>2017-10-09T13:05:59.999Z</time>
      </trkpt>
      <trkpt lat="49.52473" lon="3.81483">
        <ele>125.61</ele>
        <time>2017-10-09T13:06:09.999Z</time>
      </trkpt>
      <trkpt lat="49.52483" lon="3.81473">
        <ele>125.79</ele>
        <time>2017-10-09T13:06:19.999Z</time>
      </trkpt>
      <trkpt lat="49.52493" lon="3.81465">
        <ele>125.94</ele>
        <time>2017-10-09T13:06:29.999Z</time>
      </trkpt>
      <trkpt lat="49.52506" lon="3.81456">
        <ele>126.57</ele>
        <time>2017-10-09T13:06:39.999Z</time>
      </trkpt>
      <trkpt lat="49.52517" lon="3.81447">
        <ele>127.99</ele>
        <time>2017-10-09T13:06:49.999Z</time>
      </trkpt>
      <trkpt lat="49.52525" lon="3.81437">
        <ele>129.31</ele>
        <time>2017-10-09T13:06:59.999Z</time>
      </trkpt>
      <trkpt lat="49.52529" lon="3.81418">
        <ele>129.97</ele>
        <time>2017-10-09T13:07:09.999Z</time>
      </trkpt>
      <trkpt lat="49.52532" lon="3.81398">
        <ele>130.19</ele>
        <time>2017-10-09T13:07:19.999Z</time>
      </trkpt>
      <trkpt lat="49.52538" lon="3.81381">
        <ele>129.71</ele>
        <time>2017-10-09T13:07:29.999Z</time>
      </trkpt>
      <trkpt lat="49.52543" lon="3.81364">
        <ele>129.45</ele>
        <time>2017-10-09T13:07:39.999Z</time>
      </trkpt>
      <trkpt lat="49.52547" lon="3.8135">
        <ele>128.9</ele>
        <time>2017-10-09T13:07:49.999Z</time>
      </trkpt>
      <trkpt lat="49.52552" lon="3.81334">
        <ele>128.38</ele>
        <time>2017-10-09T13:07:59.999Z</time>
      </trkpt>
      <trkpt lat="49.52557" lon="3.81317">
        <ele>127.92</ele>
        <time>2017-10-09T13:08:09.999Z</time>
      </trkpt>
      <trkpt lat="49.52561" lon="3.81301">
        <ele>127.09</ele>
        <time>2017-10-09T13:08:19.999Z</time>
      </trkpt>
      <trkpt lat="49.52567" lon="3.81285">
        <ele>126.81</ele>
        <time>2017-10-09T13:08:29.999Z</time>
      </trkpt>
      <trkpt lat="49.52573" lon="3.81268">
        <ele>126.91</ele>
        <time>2017-10-09T13:08:39.999Z</time>
      </trkpt>
      <trkpt lat="49.52579" lon="3.81252">
        <ele>127.13</ele>
        <time>2017-10-09T13:08:49.999Z</time>
      </trkpt>
      <trkpt lat="49.52582" lon="3.81231">
        <ele>127.59</ele>
        <time>2017-10-09T13:08:59.999Z</time>
      </trkpt>
      <trkpt lat="49.5258" lon="3.81219">
        <ele>127.7</ele>
        <time>2017-10-09T13:09:09.999Z</time>
      </trkpt>
      <trkpt lat="49.52581" lon="3.81222">
        <ele>127.57</ele>
        <time>2017-10-09T13:09:19.999Z</time>
      </trkpt>
      <trkpt lat="49.52582" lon="3.81221">
        <ele>127.43</ele>
        <time>2017-10-09T13:09:47.999Z</time>
      </trkpt>
      <trkpt lat="49.52583" lon="3.81221">
        <ele>127.27</ele>
        <time>2017-10-09T13:10:00.000Z</time>
      </trkpt>
      <trkpt lat="49.52583" lon="3.81219">
        <ele>126.87</ele>
        <time>2017-10-09T13:10:10.000Z</time>
      </trkpt>
      <trkpt lat="49.52583" lon="3.81217">
        <ele>126.44</ele>
        <time>2017-10-09T13:10:20.000Z</time>
      </trkpt>
      <trkpt lat="49.52584" lon="3.81218">
        <ele>126.17</ele>
        <time>2017-10-09T13:10:47.000Z</time>
      </trkpt>
      <trkpt lat="49.52583" lon="3.81216">
        <ele>126.01</ele>
        <time>2017-10-09T13:11:03.000Z</time>
      </trkpt>
      <trkpt lat="49.52583" lon="3.81214">
        <ele>125.75</ele>
        <time>2017-10-09T13:11:13.000Z</time>
      </trkpt>
      <trkpt lat="49.52583" lon="3.81213">
        <ele>125.6</ele>
        <time>2017-10-09T13:11:23.000Z</time>
      </trkpt>
      <trkpt lat="49.52583" lon="3.81214">
        <ele>125.26</ele>
        <time>2017-10-09T13:11:50.000Z</time>
      </trkpt>
      <trkpt lat="49.52582" lon="3.81218">
        <ele>125.1</ele>
        <time>2017-10-09T13:12:00.000Z</time>
      </trkpt>
      <trkpt lat="49.52581" lon="3.81215">
        <ele>125.01</ele>
        <time>2017-10-09T13:12:10.000Z</time>
      </trkpt>
      <trkpt lat="49.52582" lon="3.81217">
        <ele>124.92</ele>
        <time>2017-10-09T13:12:21.000Z</time>
      </trkpt>
      <trkpt lat="49.52582" lon="3.81216">
        <ele>124.68</ele>
        <time>2017-10-09T13:13:06.000Z</time>
      </trkpt>
      <trkpt lat="49.52591" lon="3.81218">
        <ele>126.6</ele>
        <time>2017-10-09T13:13:16.000Z</time>
      </trkpt>
      <trkpt lat="49.5259" lon="3.81223">
        <ele>127.47</ele>
        <time>2017-10-09T13:13:26.000Z</time>
      </trkpt>
      <trkpt lat="49.5259" lon="3.81226">
        <ele>128.35</ele>
        <time>2017-10-09T13:13:36.000Z</time>
      </trkpt>
      <trkpt lat="49.52588" lon="3.81225">
        <ele>128.41</ele>
        <time>2017-10-09T13:13:46.000Z</time>
      </trkpt>
      <trkpt lat="49.52587" lon="3.81226">
        <ele>128.27</ele>
        <time>2017-10-09T13:13:56.000Z</time>
      </trkpt>
      <trkpt lat="49.52586" lon="3.81226">
        <ele>127.92</ele>
        <time>2017-10-09T13:14:09.000Z</time>
      </trkpt>
      <trkpt lat="49.52583" lon="3.81226">
        <ele>127.56</ele>
        <time>2017-10-09T13:14:19.000Z</time>
      </trkpt>
      <trkpt lat="49.52583" lon="3.81227">
        <ele>126.88</ele>
        <time>2017-10-09T13:14:36.000Z</time>
      </trkpt>
      <trkpt lat="49.52581" lon="3.81225">
        <ele>126.67</ele>
        <time>2017-10-09T13:14:46.000Z</time>
      </trkpt>
      <trkpt lat="49.5258" lon="3.81225">
        <ele>126.57</ele>
        <time>2017-10-09T13:14:56.000Z</time>
      </trkpt>
      <trkpt lat="49.52579" lon="3.81223">
        <ele>126.44</ele>
        <time>2017-10-09T13:15:10.000Z</time>
      </trkpt>
      <trkpt lat="49.52579" lon="3.81213">
        <ele>126.71</ele>
        <time>2017-10-09T13:15:20.000Z</time>
      </trkpt>
      <trkpt lat="49.52577" lon="3.81213">
        <ele>126.68</ele>
        <time>2017-10-09T13:15:30.000Z</time>
      </trkpt>
      <trkpt lat="49.5258" lon="3.81217">
        <ele>126.72</ele>
        <time>2017-10-09T13:15:40.000Z</time>
      </trkpt>
      <trkpt lat="49.52583" lon="3.81222">
        <ele>126.52</ele>
        <time>2017-10-09T13:15:50.000Z</time>
      </trkpt>
      <trkpt lat="49.52584" lon="3.81227">
        <ele>126.3</ele>
        <time>2017-10-09T13:16:00.000Z</time>
      </trkpt>
      <trkpt lat="49.52583" lon="3.81217">
        <ele>126.51</ele>
        <time>2017-10-09T13:16:10.000Z</time>
      </trkpt>
      <trkpt lat="49.52579" lon="3.81201">
        <ele>127.12</ele>
        <time>2017-10-09T13:16:20.000Z</time>
      </trkpt>
      <trkpt lat="49.52577" lon="3.81202">
        <ele>127.15</ele>
        <time>2017-10-09T13:16:30.000Z</time>
      </trkpt>
      <trkpt lat="49.5258" lon="3.81208">
        <ele>126.86</ele>
        <time>2017-10-09T13:16:40.000Z</time>
      </trkpt>
      <trkpt lat="49.52587" lon="3.81216">
        <ele>126.78</ele>
        <time>2017-10-09T13:16:50.000Z</time>
      </trkpt>
      <trkpt lat="49.52586" lon="3.81216">
        <ele>126.22</ele>
        <time>2017-10-09T13:17:01.000Z</time>
      </trkpt>
      <trkpt lat="49.5258" lon="3.81222">
        <ele>125.6</ele>
        <time>2017-10-09T13:17:11.000Z</time>
      </trkpt>
      <trkpt lat="49.52574" lon="3.81228">
        <ele>125.33</ele>
        <time>2017-10-09T13:17:21.000Z</time>
      </trkpt>
      <trkpt lat="49.52576" lon="3.81224">
        <ele>125.01</ele>
        <time>2017-10-09T13:17:31.000Z</time>
      </trkpt>
      <trkpt lat="49.52576" lon="3.81226">
        <ele>124.75</ele>
        <time>2017-10-09T13:17:41.000Z</time>
      </trkpt>
      <trkpt lat="49.52579" lon="3.81224">
        <ele>124.51</ele>
        <time>2017-10-09T13:17:51.000Z</time>
      </trkpt>
      <trkpt lat="49.5258" lon="3.81223">
        <ele>124.23</ele>
        <time>2017-10-09T13:18:01.000Z</time>
      </trkpt>
      <trkpt lat="49.52581" lon="3.81221">
        <ele>124.23</ele>
        <time>2017-10-09T13:18:11.000Z</time>
      </trkpt>
      <trkpt lat="49.52582" lon="3.81223">
        <ele>124.24</ele>
        <time>2017-10-09T13:18:24.000Z</time>
      </trkpt>
      <trkpt lat="49.52572" lon="3.81227">
        <ele>124.3</ele>
        <time>2017-10-09T13:18:34.000Z</time>
      </trkpt>
      <trkpt lat="49.52563" lon="3.81231">
        <ele>123.72</ele>
        <time>2017-10-09T13:18:44.000Z</time>
      </trkpt>
      <trkpt lat="49.52554" lon="3.81232">
        <ele>122.66</ele>
        <time>2017-10-09T13:18:54.000Z</time>
      </trkpt>
      <trkpt lat="49.52544" lon="3.81236">
        <ele>121.49</ele>
        <time>2017-10-09T13:19:04.000Z</time>
      </trkpt>
      <trkpt lat="49.52533" lon="3.81236">
        <ele>119.31</ele>
        <time>2017-10-09T13:19:14.000Z</time>
      </trkpt>
      <trkpt lat="49.52523" lon="3.81237">
        <ele>117.18</ele>
        <time>2017-10-09T13:19:24.000Z</time>
      </trkpt>
      <trkpt lat="49.52513" lon="3.81231">
        <ele>115.07</ele>
        <time>2017-10-09T13:19:34.000Z</time>
      </trkpt>
      <trkpt lat="49.52501" lon="3.81225">
        <ele>112.81</ele>
        <time>2017-10-09T13:19:44.000Z</time>
      </trkpt>
      <trkpt lat="49.52485" lon="3.81207">
        <ele>111.13</ele>
        <time>2017-10-09T13:19:54.000Z</time>
      </trkpt>
      <trkpt lat="49.52473" lon="3.8119">
        <ele>110.57</ele>
        <time>2017-10-09T13:20:04.000Z</time>
      </trkpt>
      <trkpt lat="49.5246" lon="3.81174">
        <ele>110.68</ele>
        <time>2017-10-09T13:20:14.000Z</time>
      </trkpt>
      <trkpt lat="49.5245" lon="3.81168">
        <ele>111.65</ele>
        <time>2017-10-09T13:20:24.000Z</time>
      </trkpt>
      <trkpt lat="49.52444" lon="3.81159">
        <ele>112.37</ele>
        <time>2017-10-09T13:20:34.000Z</time>
      </trkpt>
      <trkpt lat="49.52434" lon="3.81151">
        <ele>112.68</ele>
        <time>2017-10-09T13:20:44.000Z</time>
      </trkpt>
      <trkpt lat="49.52424" lon="3.81144">
        <ele>112.89</ele>
        <time>2017-10-09T13:20:54.000Z</time>
      </trkpt>
      <trkpt lat="49.52408" lon="3.81134">
        <ele>113.27</ele>
        <time>2017-10-09T13:21:04.000Z</time>
      </trkpt>
      <trkpt lat="49.52396" lon="3.81122">
        <ele>114.08</ele>
        <time>2017-10-09T13:21:14.000Z</time>
      </trkpt>
      <trkpt lat="49.52387" lon="3.81119">
        <ele>114.87</ele>
        <time>2017-10-09T13:21:24.000Z</time>
      </trkpt>
      <trkpt lat="49.52378" lon="3.81113">
        <ele>115.95</ele>
        <time>2017-10-09T13:21:34.000Z</time>
      </trkpt>
      <trkpt lat="49.52369" lon="3.81104">
        <ele>116.78</ele>
        <time>2017-10-09T13:21:44.000Z</time>
      </trkpt>
      <trkpt lat="49.5236" lon="3.81096">
        <ele>117.23</ele>
        <time>2017-10-09T13:21:54.000Z</time>
      </trkpt>
      <trkpt lat="49.5235" lon="3.81085">
        <ele>117.65</ele>
        <time>2017-10-09T13:22:04.000Z</time>
      </trkpt>
      <trkpt lat="49.52343" lon="3.81082">
        <ele>118.19</ele>
        <time>2017-10-09T13:22:14.000Z</time>
      </trkpt>
      <trkpt lat="49.52332" lon="3.8108">
        <ele>118.68</ele>
        <time>2017-10-09T13:22:24.000Z</time>
      </trkpt>
      <trkpt lat="49.52321" lon="3.81077">
        <ele>118.48</ele>
        <time>2017-10-09T13:22:34.000Z</time>
      </trkpt>
      <trkpt lat="49.5231" lon="3.81066">
        <ele>118.3</ele>
        <time>2017-10-09T13:22:44.000Z</time>
      </trkpt>
      <trkpt lat="49.52303" lon="3.81052">
        <ele>117.75</ele>
        <time>2017-10-09T13:22:54.000Z</time>
      </trkpt>
      <trkpt lat="49.52297" lon="3.81043">
        <ele>117.25</ele>
        <time>2017-10-09T13:23:04.000Z</time>
      </trkpt>
      <trkpt lat="49.52293" lon="3.81028">
        <ele>116.66</ele>
        <time>2017-10-09T13:23:14.000Z</time>
      </trkpt>
      <trkpt lat="49.52289" lon="3.81005">
        <ele>115.76</ele>
        <time>2017-10-09T13:23:24.000Z</time>
      </trkpt>
      <trkpt lat="49.52289" lon="3.80988">
        <ele>115.04</ele>
        <time>2017-10-09T13:23:34.000Z</time>
      </trkpt>
      <trkpt lat="49.52287" lon="3.80969">
        <ele>114.67</ele>
        <time>2017-10-09T13:23:44.000Z</time>
      </trkpt>
      <trkpt lat="49.52285" lon="3.8096">
        <ele>113.57</ele>
        <time>2017-10-09T13:23:54.000Z</time>
      </trkpt>
      <trkpt lat="49.52281" lon="3.80941">
        <ele>112.64</ele>
        <time>2017-10-09T13:24:04.000Z</time>
      </trkpt>
      <trkpt lat="49.52279" lon="3.80931">
        <ele>112.35</ele>
        <time>2017-10-09T13:24:14.000Z</time>
      </trkpt>
      <trkpt lat="49.52276" lon="3.80914">
        <ele>111.73</ele>
        <time>2017-10-09T13:24:24.000Z</time>
      </trkpt>
      <trkpt lat="49.52277" lon="3.80895">
        <ele>110.93</ele>
        <time>2017-10-09T13:24:34.000Z</time>
      </trkpt>
      <trkpt lat="49.52278" lon="3.80884">
        <ele>110.65</ele>
        <time>2017-10-09T13:24:44.000Z</time>
      </trkpt>
      <trkpt lat="49.52281" lon="3.80877">
        <ele>110.71</ele>
        <time>2017-10-09T13:24:54.000Z</time>
      </trkpt>
      <trkpt lat="49.52282" lon="3.80861">
        <ele>110.89</ele>
        <time>2017-10-09T13:25:04.000Z</time>
      </trkpt>
      <trkpt lat="49.52281" lon="3.80847">
        <ele>110.97</ele>
        <time>2017-10-09T13:25:14.000Z</time>
      </trkpt>
      <trkpt lat="49.52281" lon="3.80835">
        <ele>111.52</ele>
        <time>2017-10-09T13:25:24.000Z</time>
      </trkpt>
      <trkpt lat="49.5228" lon="3.80816">
        <ele>112.47</ele>
        <time>2017-10-09T13:25:34.000Z</time>
      </trkpt>
      <trkpt lat="49.52279" lon="3.80792">
        <ele>113.06</ele>
        <time>2017-10-09T13:25:44.000Z</time>
      </trkpt>
      <trkpt lat="49.52277" lon="3.80774">
        <ele>113.51</ele>
        <time>2017-10-09T13:25:54.000Z</time>
      </trkpt>
      <trkpt lat="49.52277" lon="3.80755">
        <ele>114.38</ele>
        <time>2017-10-09T13:26:04.000Z</time>
      </trkpt>
      <trkpt lat="49.52276" lon="3.80734">
        <ele>115.72</ele>
        <time>2017-10-09T13:26:14.000Z</time>
      </trkpt>
      <trkpt lat="49.52273" lon="3.80716">
        <ele>117.22</ele>
        <time>2017-10-09T13:26:24.000Z</time>
      </trkpt>
      <trkpt lat="49.52271" lon="3.80696">
        <ele>118.64</ele>
        <time>2017-10-09T13:26:34.000Z</time>
      </trkpt>
      <trkpt lat="49.52269" lon="3.8068">
        <ele>119.7</ele>
        <time>2017-10-09T13:26:44.000Z</time>
      </trkpt>
      <trkpt lat="49.52266" lon="3.80663">
        <ele>120.75</ele>
        <time>2017-10-09T13:26:54.000Z</time>
      </trkpt>
      <trkpt lat="49.52266" lon="3.80651">
        <ele>121.45</ele>
        <time>2017-10-09T13:27:04.000Z</time>
      </trkpt>
      <trkpt lat="49.52264" lon="3.80634">
        <ele>122.09</ele>
        <time>2017-10-09T13:27:14.000Z</time>
      </trkpt>
      <trkpt lat="49.52264" lon="3.80621">
        <ele>122.72</ele>
        <time>2017-10-09T13:27:24.000Z</time>
      </trkpt>
      <trkpt lat="49.52262" lon="3.80607">
        <ele>122.93</ele>
        <time>2017-10-09T13:27:34.000Z</time>
      </trkpt>
      <trkpt lat="49.5226" lon="3.80586">
        <ele>123.15</ele>
        <time>2017-10-09T13:27:44.000Z</time>
      </trkpt>
      <trkpt lat="49.52258" lon="3.80571">
        <ele>123.4</ele>
        <time>2017-10-09T13:27:54.000Z</time>
      </trkpt>
      <trkpt lat="49.52255" lon="3.8055">
        <ele>123.73</ele>
        <time>2017-10-09T13:28:04.000Z</time>
      </trkpt>
      <trkpt lat="49.52252" lon="3.80533">
        <ele>124.8</ele>
        <time>2017-10-09T13:28:14.000Z</time>
      </trkpt>
      <trkpt lat="49.52252" lon="3.80517">
        <ele>125.67</ele>
        <time>2017-10-09T13:28:24.000Z</time>
      </trkpt>
      <trkpt lat="49.52251" lon="3.80498">
        <ele>126.18</ele>
        <time>2017-10-09T13:28:34.000Z</time>
      </trkpt>
      <trkpt lat="49.52249" lon="3.80476">
        <ele>127.26</ele>
        <time>2017-10-09T13:28:44.000Z</time>
      </trkpt>
      <trkpt lat="49.52246" lon="3.80458">
        <ele>128.39</ele>
        <time>2017-10-09T13:28:54.000Z</time>
      </trkpt>
      <trkpt lat="49.52244" lon="3.80442">
        <ele>129.27</ele>
        <time>2017-10-09T13:29:04.000Z</time>
      </trkpt>
      <trkpt lat="49.52243" lon="3.80419">
        <ele>129.76</ele>
        <time>2017-10-09T13:29:14.000Z</time>
      </trkpt>
      <trkpt lat="49.52238" lon="3.80408">
        <ele>130.05</ele>
        <time>2017-10-09T13:29:24.000Z</time>
      </trkpt>
      <trkpt lat="49.52234" lon="3.80391">
        <ele>130.17</ele>
        <time>2017-10-09T13:29:34.000Z</time>
      </trkpt>
      <trkpt lat="49.5223" lon="3.80372">
        <ele>129.95</ele>
        <time>2017-10-09T13:29:44.000Z</time>
      </trkpt>
      <trkpt lat="49.52228" lon="3.80351">
        <ele>129.43</ele>
        <time>2017-10-09T13:29:54.000Z</time>
      </trkpt>
      <trkpt lat="49.52221" lon="3.80333">
        <ele>128.28</ele>
        <time>2017-10-09T13:30:04.000Z</time>
      </trkpt>
      <trkpt lat="49.52214" lon="3.80319">
        <ele>127.42</ele>
        <time>2017-10-09T13:30:14.000Z</time>
      </trkpt>
      <trkpt lat="49.52207" lon="3.80302">
        <ele>126.84</ele>
        <time>2017-10-09T13:30:24.000Z</time>
      </trkpt>
      <trkpt lat="49.52199" lon="3.80288">
        <ele>126.16</ele>
        <time>2017-10-09T13:30:34.000Z</time>
      </trkpt>
      <trkpt lat="49.52191" lon="3.80274">
        <ele>125.56</ele>
        <time>2017-10-09T13:30:44.000Z</time>
      </trkpt>
      <trkpt lat="49.52182" lon="3.80251">
        <ele>125.2</ele>
        <time>2017-10-09T13:30:54.000Z</time>
      </trkpt>
      <trkpt lat="49.52175" lon="3.80233">
        <ele>125.36</ele>
        <time>2017-10-09T13:31:04.000Z</time>
      </trkpt>
      <trkpt lat="49.52172" lon="3.80213">
        <ele>125.75</ele>
        <time>2017-10-09T13:31:14.000Z</time>
      </trkpt>
      <trkpt lat="49.52163" lon="3.80204">
        <ele>126.13</ele>
        <time>2017-10-09T13:31:24.000Z</time>
      </trkpt>
      <trkpt lat="49.52159" lon="3.80194">
        <ele>126.72</ele>
        <time>2017-10-09T13:31:34.000Z</time>
      </trkpt>
      <trkpt lat="49.52158" lon="3.80182">
        <ele>126.99</ele>
        <time>2017-10-09T13:31:44.000Z</time>
      </trkpt>
      <trkpt lat="49.5216" lon="3.80164">
        <ele>127.61</ele>
        <time>2017-10-09T13:31:54.000Z</time>
      </trkpt>
      <trkpt lat="49.52167" lon="3.80156">
        <ele>128.55</ele>
        <time>2017-10-09T13:32:04.000Z</time>
      </trkpt>
      <trkpt lat="49.52176" lon="3.8015">
        <ele>129.02</ele>
        <time>2017-10-09T13:32:14.000Z</time>
      </trkpt>
      <trkpt lat="49.52181" lon="3.80141">
        <ele>128.64</ele>
        <time>2017-10-09T13:32:24.000Z</time>
      </trkpt>
      <trkpt lat="49.52193" lon="3.80129">
        <ele>127.56</ele>
        <time>2017-10-09T13:32:34.000Z</time>
      </trkpt>
      <trkpt lat="49.52201" lon="3.80116">
        <ele>126.88</ele>
        <time>2017-10-09T13:32:44.000Z</time>
      </trkpt>
      <trkpt lat="49.52206" lon="3.80111">
        <ele>126.73</ele>
        <time>2017-10-09T13:32:54.000Z</time>
      </trkpt>
      <trkpt lat="49.52206" lon="3.80099">
        <ele>126.82</ele>
        <time>2017-10-09T13:33:04.000Z</time>
      </trkpt>
      <trkpt lat="49.52201" lon="3.80079">
        <ele>127.5</ele>
        <time>2017-10-09T13:33:14.000Z</time>
      </trkpt>
      <trkpt lat="49.52203" lon="3.80066">
        <ele>128.59</ele>
        <time>2017-10-09T13:33:24.000Z</time>
      </trkpt>
      <trkpt lat="49.52202" lon="3.80049">
        <ele>129.71</ele>
        <time>2017-10-09T13:33:34.000Z</time>
      </trkpt>
      <trkpt lat="49.52203" lon="3.80031">
        <ele>130.97</ele>
        <time>2017-10-09T13:33:44.000Z</time>
      </trkpt>
      <trkpt lat="49.52201" lon="3.80013">
        <ele>131.9</ele>
        <time>2017-10-09T13:33:53.999Z</time>
      </trkpt>
      <trkpt lat="49.52197" lon="3.79995">
        <ele>131.9</ele>
        <time>2017-10-09T13:34:03.999Z</time>
      </trkpt>
      <trkpt lat="49.52195" lon="3.79983">
        <ele>131.76</ele>
        <time>2017-10-09T13:34:13.999Z</time>
      </trkpt>
      <trkpt lat="49.52193" lon="3.79974">
        <ele>131.31</ele>
        <time>2017-10-09T13:34:23.999Z</time>
      </trkpt>
      <trkpt lat="49.52192" lon="3.79951">
        <ele>130.68</ele>
        <time>2017-10-09T13:34:33.999Z</time>
      </trkpt>
      <trkpt lat="49.52185" lon="3.79933">
        <ele>130.1</ele>
        <time>2017-10-09T13:34:43.999Z</time>
      </trkpt>
      <trkpt lat="49.52179" lon="3.79918">
        <ele>129.76</ele>
        <time>2017-10-09T13:34:53.999Z</time>
      </trkpt>
      <trkpt lat="49.52178" lon="3.79902">
        <ele>129.85</ele>
        <time>2017-10-09T13:35:03.999Z</time>
      </trkpt>
      <trkpt lat="49.52174" lon="3.7989">
        <ele>129.7</ele>
        <time>2017-10-09T13:35:13.999Z</time>
      </trkpt>
      <trkpt lat="49.52167" lon="3.79874">
        <ele>129.39</ele>
        <time>2017-10-09T13:35:23.999Z</time>
      </trkpt>
      <trkpt lat="49.52163" lon="3.79862">
        <ele>128.51</ele>
        <time>2017-10-09T13:35:33.999Z</time>
      </trkpt>
      <trkpt lat="49.52159" lon="3.79848">
        <ele>127.29</ele>
        <time>2017-10-09T13:35:43.999Z</time>
      </trkpt>
      <trkpt lat="49.52155" lon="3.79852">
        <ele>125.66</ele>
        <time>2017-10-09T13:35:53.999Z</time>
      </trkpt>
      <trkpt lat="49.52153" lon="3.79866">
        <ele>123.59</ele>
        <time>2017-10-09T13:36:03.999Z</time>
      </trkpt>
      <trkpt lat="49.52148" lon="3.79878">
        <ele>121.44</ele>
        <time>2017-10-09T13:36:13.999Z</time>
      </trkpt>
      <trkpt lat="49.52142" lon="3.79887">
        <ele>119.25</ele>
        <time>2017-10-09T13:36:23.999Z</time>
      </trkpt>
      <trkpt lat="49.52132" lon="3.79891">
        <ele>117.66</ele>
        <time>2017-10-09T13:36:33.999Z</time>
      </trkpt>
      <trkpt lat="49.52122" lon="3.79895">
        <ele>117.2</ele>
        <time>2017-10-09T13:36:43.999Z</time>
      </trkpt>
      <trkpt lat="49.52111" lon="3.79894">
        <ele>117.08</ele>
        <time>2017-10-09T13:36:53.999Z</time>
      </trkpt>
      <trkpt lat="49.52101" lon="3.79893">
        <ele>117.58</ele>
        <time>2017-10-09T13:37:03.999Z</time>
      </trkpt>
      <trkpt lat="49.52091" lon="3.79893">
        <ele>119.12</ele>
        <time>2017-10-09T13:37:13.999Z</time>
      </trkpt>
      <trkpt lat="49.52084" lon="3.79899">
        <ele>121.24</ele>
        <time>2017-10-09T13:37:23.999Z</time>
      </trkpt>
      <trkpt lat="49.52078" lon="3.79907">
        <ele>122.78</ele>
        <time>2017-10-09T13:37:33.999Z</time>
      </trkpt>
      <trkpt lat="49.52073" lon="3.79922">
        <ele>124.68</ele>
        <time>2017-10-09T13:37:43.999Z</time>
      </trkpt>
      <trkpt lat="49.52068" lon="3.79944">
        <ele>126.56</ele>
        <time>2017-10-09T13:37:53.999Z</time>
      </trkpt>
      <trkpt lat="49.52063" lon="3.79959">
        <ele>127.02</ele>
        <time>2017-10-09T13:38:03.999Z</time>
      </trkpt>
      <trkpt lat="49.52053" lon="3.79978">
        <ele>127.21</ele>
        <time>2017-10-09T13:38:13.999Z</time>
      </trkpt>
      <trkpt lat="49.52045" lon="3.79994">
        <ele>127.74</ele>
        <time>2017-10-09T13:38:23.999Z</time>
      </trkpt>
      <trkpt lat="49.52038" lon="3.80009">
        <ele>128.3</ele>
        <time>2017-10-09T13:38:33.999Z</time>
      </trkpt>
      <trkpt lat="49.52033" lon="3.80024">
        <ele>129.23</ele>
        <time>2017-10-09T13:38:43.999Z</time>
      </trkpt>
      <trkpt lat="49.52032" lon="3.80038">
        <ele>130.14</ele>
        <time>2017-10-09T13:38:53.999Z</time>
      </trkpt>
      <trkpt lat="49.52029" lon="3.80053">
        <ele>131.09</ele>
        <time>2017-10-09T13:39:03.999Z</time>
      </trkpt>
      <trkpt lat="49.52021" lon="3.80068">
        <ele>132.22</ele>
        <time>2017-10-09T13:39:13.999Z</time>
      </trkpt>
      <trkpt lat="49.52012" lon="3.80084">
        <ele>133.36</ele>
        <time>2017-10-09T13:39:23.999Z</time>
      </trkpt>
      <trkpt lat="49.52004" lon="3.80098">
        <ele>134.16</ele>
        <time>2017-10-09T13:39:33.999Z</time>
      </trkpt>
      <trkpt lat="49.51994" lon="3.80111">
        <ele>134.76</ele>
        <time>2017-10-09T13:39:43.999Z</time>
      </trkpt>
      <trkpt lat="49.51983" lon="3.80122">
        <ele>134.98</ele>
        <time>2017-10-09T13:39:53.999Z</time>
      </trkpt>
      <trkpt lat="49.51972" lon="3.8013">
        <ele>135.23</ele>
        <time>2017-10-09T13:40:03.999Z</time>
      </trkpt>
      <trkpt lat="49.51962" lon="3.80138">
        <ele>135.72</ele>
        <time>2017-10-09T13:40:13.999Z</time>
      </trkpt>
      <trkpt lat="49.51953" lon="3.80148">
        <ele>136.56</ele>
        <time>2017-10-09T13:40:23.999Z</time>
      </trkpt>
      <trkpt lat="49.51947" lon="3.8016">
        <ele>137.27</ele>
        <time>2017-10-09T13:40:33.999Z</time>
      </trkpt>
      <trkpt lat="49.51943" lon="3.80169">
        <ele>138.32</ele>
        <time>2017-10-09T13:40:43.999Z</time>
      </trkpt>
      <trkpt lat="49.51937" lon="3.8018">
        <ele>139.79</ele>
        <time>2017-10-09T13:40:53.999Z</time>
      </trkpt>
      <trkpt lat="49.51933" lon="3.8019">
        <ele>141.08</ele>
        <time>2017-10-09T13:41:03.999Z</time>
      </trkpt>
      <trkpt lat="49.51927" lon="3.80201">
        <ele>141.92</ele>
        <time>2017-10-09T13:41:13.999Z</time>
      </trkpt>
      <trkpt lat="49.5192" lon="3.80211">
        <ele>142.74</ele>
        <time>2017-10-09T13:41:23.999Z</time>
      </trkpt>
      <trkpt lat="49.51914" lon="3.80223">
        <ele>143.64</ele>
        <time>2017-10-09T13:41:33.999Z</time>
      </trkpt>
      <trkpt lat="49.51907" lon="3.80235">
        <ele>144.57</ele>
        <time>2017-10-09T13:41:43.999Z</time>
      </trkpt>
      <trkpt lat="49.519" lon="3.80247">
        <ele>145.85</ele>
        <time>2017-10-09T13:41:53.999Z</time>
      </trkpt>
      <trkpt lat="49.51893" lon="3.80254">
        <ele>147.22</ele>
        <time>2017-10-09T13:42:03.999Z</time>
      </trkpt>
      <trkpt lat="49.51886" lon="3.80258">
        <ele>148.48</ele>
        <time>2017-10-09T13:42:13.999Z</time>
      </trkpt>
      <trkpt lat="49.51878" lon="3.80266">
        <ele>149.9</ele>
        <time>2017-10-09T13:42:23.999Z</time>
      </trkpt>
      <trkpt lat="49.51869" lon="3.80277">
        <ele>151.19</ele>
        <time>2017-10-09T13:42:33.999Z</time>
      </trkpt>
      <trkpt lat="49.51864" lon="3.80284">
        <ele>151.94</ele>
        <time>2017-10-09T13:42:43.999Z</time>
      </trkpt>
      <trkpt lat="49.51853" lon="3.80299">
        <ele>152.31</ele>
        <time>2017-10-09T13:42:53.999Z</time>
      </trkpt>
      <trkpt lat="49.51846" lon="3.80309">
        <ele>152.8</ele>
        <time>2017-10-09T13:43:03.999Z</time>
      </trkpt>
      <trkpt lat="49.51839" lon="3.80319">
        <ele>153.46</ele>
        <time>2017-10-09T13:43:13.999Z</time>
      </trkpt>
      <trkpt lat="49.51832" lon="3.80332">
        <ele>154.04</ele>
        <time>2017-10-09T13:43:23.999Z</time>
      </trkpt>
      <trkpt lat="49.51828" lon="3.80344">
        <ele>154.34</ele>
        <time>2017-10-09T13:43:33.999Z</time>
      </trkpt>
      <trkpt lat="49.51825" lon="3.80354">
        <ele>154.29</ele>
        <time>2017-10-09T13:43:43.999Z</time>
      </trkpt>
      <trkpt lat="49.5182" lon="3.80373">
        <ele>154.25</ele>
        <time>2017-10-09T13:43:53.999Z</time>
      </trkpt>
      <trkpt lat="49.51815" lon="3.80385">
        <ele>154.13</ele>
        <time>2017-10-09T13:44:03.999Z</time>
      </trkpt>
      <trkpt lat="49.51807" lon="3.80406">
        <ele>154.31</ele>
        <time>2017-10-09T13:44:13.999Z</time>
      </trkpt>
      <trkpt lat="49.51803" lon="3.80416">
        <ele>154.57</ele>
        <time>2017-10-09T13:44:23.999Z</time>
      </trkpt>
      <trkpt lat="49.51795" lon="3.80432">
        <ele>154.72</ele>
        <time>2017-10-09T13:44:33.999Z</time>
      </trkpt>
      <trkpt lat="49.5179" lon="3.80441">
        <ele>154.51</ele>
        <time>2017-10-09T13:44:43.999Z</time>
      </trkpt>
      <trkpt lat="49.51784" lon="3.80453">
        <ele>154.23</ele>
        <time>2017-10-09T13:44:53.999Z</time>
      </trkpt>
      <trkpt lat="49.51776" lon="3.80467">
        <ele>154.32</ele>
        <time>2017-10-09T13:45:03.999Z</time>
      </trkpt>
      <trkpt lat="49.51771" lon="3.80476">
        <ele>155.15</ele>
        <time>2017-10-09T13:45:13.999Z</time>
      </trkpt>
      <trkpt lat="49.51761" lon="3.80489">
        <ele>156.65</ele>
        <time>2017-10-09T13:45:23.999Z</time>
      </trkpt>
      <trkpt lat="49.51755" lon="3.80497">
        <ele>157.99</ele>
        <time>2017-10-09T13:45:33.999Z</time>
      </trkpt>
      <trkpt lat="49.51751" lon="3.80503">
        <ele>159.15</ele>
        <time>2017-10-09T13:45:43.999Z</time>
      </trkpt>
      <trkpt lat="49.51747" lon="3.80516">
        <ele>160.65</ele>
        <time>2017-10-09T13:45:53.999Z</time>
      </trkpt>
      <trkpt lat="49.51746" lon="3.80528">
        <ele>162.3</ele>
        <time>2017-10-09T13:46:03.999Z</time>
      </trkpt>
      <trkpt lat="49.51741" lon="3.80547">
        <ele>163.69</ele>
        <time>2017-10-09T13:46:13.999Z</time>
      </trkpt>
      <trkpt lat="49.51739" lon="3.80553">
        <ele>164.45</ele>
        <time>2017-10-09T13:46:23.999Z</time>
      </trkpt>
      <trkpt lat="49.51733" lon="3.80576">
        <ele>165.25</ele>
        <time>2017-10-09T13:46:33.999Z</time>
      </trkpt>
      <trkpt lat="49.51731" lon="3.80587">
        <ele>166.4</ele>
        <time>2017-10-09T13:46:43.999Z</time>
      </trkpt>
      <trkpt lat="49.51728" lon="3.806">
        <ele>167.13</ele>
        <time>2017-10-09T13:46:53.999Z</time>
      </trkpt>
      <trkpt lat="49.51725" lon="3.80617">
        <ele>168.37</ele>
        <time>2017-10-09T13:47:03.999Z</time>
      </trkpt>
      <trkpt lat="49.51725" lon="3.80627">
        <ele>170.26</ele>
        <time>2017-10-09T13:47:13.999Z</time>
      </trkpt>
      <trkpt lat="49.51724" lon="3.80648">
        <ele>171.88</ele>
        <time>2017-10-09T13:47:23.999Z</time>
      </trkpt>
      <trkpt lat="49.51725" lon="3.80667">
        <ele>173.13</ele>
        <time>2017-10-09T13:47:33.999Z</time>
      </trkpt>
      <trkpt lat="49.51724" lon="3.80684">
        <ele>173.25</ele>
        <time>2017-10-09T13:47:43.999Z</time>
      </trkpt>
      <trkpt lat="49.51721" lon="3.80694">
        <ele>172.2</ele>
        <time>2017-10-09T13:47:53.999Z</time>
      </trkpt>
      <trkpt lat="49.51718" lon="3.80704">
        <ele>171.26</ele>
        <time>2017-10-09T13:48:03.999Z</time>
      </trkpt>
      <trkpt lat="49.51716" lon="3.80704">
        <ele>171.21</ele>
        <time>2017-10-09T13:48:13.999Z</time>
      </trkpt>
      <trkpt lat="49.51716" lon="3.80705">
        <ele>171.41</ele>
        <time>2017-10-09T13:48:26.999Z</time>
      </trkpt>
      <trkpt lat="49.51714" lon="3.80706">
        <ele>171.59</ele>
        <time>2017-10-09T13:48:36.999Z</time>
      </trkpt>
      <trkpt lat="49.51712" lon="3.80713">
        <ele>172</ele>
        <time>2017-10-09T13:48:46.999Z</time>
      </trkpt>
      <trkpt lat="49.51713" lon="3.80709">
        <ele>172.08</ele>
        <time>2017-10-09T13:48:56.999Z</time>
      </trkpt>
      <trkpt lat="49.51714" lon="3.80707">
        <ele>172.26</ele>
        <time>2017-10-09T13:49:06.999Z</time>
      </trkpt>
      <trkpt lat="49.51714" lon="3.80706">
        <ele>172.73</ele>
        <time>2017-10-09T13:49:23.999Z</time>
      </trkpt>
      <trkpt lat="49.51713" lon="3.80707">
        <ele>173.84</ele>
        <time>2017-10-09T13:49:33.999Z</time>
      </trkpt>
      <trkpt lat="49.51712" lon="3.80709">
        <ele>174.91</ele>
        <time>2017-10-09T13:49:44.999Z</time>
      </trkpt>
      <trkpt lat="49.5171" lon="3.80708">
        <ele>175.22</ele>
        <time>2017-10-09T13:49:54.999Z</time>
      </trkpt>
      <trkpt lat="49.51709" lon="3.8071">
        <ele>172.37</ele>
        <time>2017-10-09T13:50:31.999Z</time>
      </trkpt>
      <trkpt lat="49.51708" lon="3.80715">
        <ele>172.1</ele>
        <time>2017-10-09T13:50:41.999Z</time>
      </trkpt>
      <trkpt lat="49.51709" lon="3.80714">
        <ele>172.05</ele>
        <time>2017-10-09T13:50:51.999Z</time>
      </trkpt>
      <trkpt lat="49.5171" lon="3.80714">
        <ele>172.02</ele>
        <time>2017-10-09T13:51:01.999Z</time>
      </trkpt>
      <trkpt lat="49.51711" lon="3.80713">
        <ele>172.14</ele>
        <time>2017-10-09T13:51:13.999Z</time>
      </trkpt>
      <trkpt lat="49.5171" lon="3.80712">
        <ele>172.91</ele>
        <time>2017-10-09T13:51:23.999Z</time>
      </trkpt>
      <trkpt lat="49.51708" lon="3.80713">
        <ele>173.22</ele>
        <time>2017-10-09T13:51:38.999Z</time>
      </trkpt>
      <trkpt lat="49.51707" lon="3.80715">
        <ele>173.58</ele>
        <time>2017-10-09T13:51:48.999Z</time>
      </trkpt>
      <trkpt lat="49.51708" lon="3.80712">
        <ele>174.77</ele>
        <time>2017-10-09T13:52:25.999Z</time>
      </trkpt>
      <trkpt lat="49.51708" lon="3.80714">
        <ele>175.06</ele>
        <time>2017-10-09T13:52:41.999Z</time>
      </trkpt>
      <trkpt lat="49.51709" lon="3.80719">
        <ele>175.58</ele>
        <time>2017-10-09T13:52:51.999Z</time>
      </trkpt>
      <trkpt lat="49.51708" lon="3.80734">
        <ele>175.42</ele>
        <time>2017-10-09T13:53:01.999Z</time>
      </trkpt>
      <trkpt lat="49.51705" lon="3.80745">
        <ele>174.7</ele>
        <time>2017-10-09T13:53:11.999Z</time>
      </trkpt>
      <trkpt lat="49.51699" lon="3.8076">
        <ele>172.99</ele>
        <time>2017-10-09T13:53:21.999Z</time>
      </trkpt>
      <trkpt lat="49.51697" lon="3.80775">
        <ele>170.63</ele>
        <time>2017-10-09T13:53:31.999Z</time>
      </trkpt>
      <trkpt lat="49.51693" lon="3.8079">
        <ele>169.14</ele>
        <time>2017-10-09T13:53:41.999Z</time>
      </trkpt>
      <trkpt lat="49.51689" lon="3.808">
        <ele>167.96</ele>
        <time>2017-10-09T13:53:51.999Z</time>
      </trkpt>
      <trkpt lat="49.51685" lon="3.80821">
        <ele>167.13</ele>
        <time>2017-10-09T13:54:01.999Z</time>
      </trkpt>
      <trkpt lat="49.51678" lon="3.80837">
        <ele>166.73</ele>
        <time>2017-10-09T13:54:11.999Z</time>
      </trkpt>
      <trkpt lat="49.51675" lon="3.80855">
        <ele>166.53</ele>
        <time>2017-10-09T13:54:21.999Z</time>
      </trkpt>
      <trkpt lat="49.51668" lon="3.80871">
        <ele>167.24</ele>
        <time>2017-10-09T13:54:31.999Z</time>
      </trkpt>
      <trkpt lat="49.51664" lon="3.80889">
        <ele>168.26</ele>
        <time>2017-10-09T13:54:41.999Z</time>
      </trkpt>
      <trkpt lat="49.51661" lon="3.80904">
        <ele>169.07</ele>
        <time>2017-10-09T13:54:51.999Z</time>
      </trkpt>
      <trkpt lat="49.51659" lon="3.80918">
        <ele>169.86</ele>
        <time>2017-10-09T13:55:01.999Z</time>
      </trkpt>
      <trkpt lat="49.51658" lon="3.80932">
        <ele>170.79</ele>
        <time>2017-10-09T13:55:11.999Z</time>
      </trkpt>
      <trkpt lat="49.51656" lon="3.80952">
        <ele>172.1</ele>
        <time>2017-10-09T13:55:21.999Z</time>
      </trkpt>
      <trkpt lat="49.51654" lon="3.80973">
        <ele>173.55</ele>
        <time>2017-10-09T13:55:31.999Z</time>
      </trkpt>
      <trkpt lat="49.51655" lon="3.8099">
        <ele>174.65</ele>
        <time>2017-10-09T13:55:41.999Z</time>
      </trkpt>
      <trkpt lat="49.51654" lon="3.81008">
        <ele>175.67</ele>
        <time>2017-10-09T13:55:51.999Z</time>
      </trkpt>
      <trkpt lat="49.51656" lon="3.8102">
        <ele>176.63</ele>
        <time>2017-10-09T13:56:01.999Z</time>
      </trkpt>
      <trkpt lat="49.51659" lon="3.81039">
        <ele>177.42</ele>
        <time>2017-10-09T13:56:11.999Z</time>
      </trkpt>
      <trkpt lat="49.5166" lon="3.8106">
        <ele>177.87</ele>
        <time>2017-10-09T13:56:21.999Z</time>
      </trkpt>
      <trkpt lat="49.51659" lon="3.81074">
        <ele>179.04</ele>
        <time>2017-10-09T13:56:31.999Z</time>
      </trkpt>
      <trkpt lat="49.51652" lon="3.81087">
        <ele>179.78</ele>
        <time>2017-10-09T13:56:41.999Z</time>
      </trkpt>
      <trkpt lat="49.51647" lon="3.811">
        <ele>180.22</ele>
        <time>2017-10-09T13:56:51.999Z</time>
      </trkpt>
      <trkpt lat="49.51642" lon="3.81114">
        <ele>180.94</ele>
        <time>2017-10-09T13:57:01.999Z</time>
      </trkpt>
      <trkpt lat="49.51634" lon="3.81126">
        <ele>182.4</ele>
        <time>2017-10-09T13:57:11.999Z</time>
      </trkpt>
      <trkpt lat="49.51629" lon="3.81137">
        <ele>184.42</ele>
        <time>2017-10-09T13:57:21.999Z</time>
      </trkpt>
      <trkpt lat="49.51627" lon="3.81151">
        <ele>186.56</ele>
        <time>2017-10-09T13:57:31.999Z</time>
      </trkpt>
      <trkpt lat="49.51623" lon="3.81163">
        <ele>188.46</ele>
        <time>2017-10-09T13:57:41.999Z</time>
      </trkpt>
      <trkpt lat="49.51619" lon="3.81184">
        <ele>189.5</ele>
        <time>2017-10-09T13:57:51.999Z</time>
      </trkpt>
      <trkpt lat="49.51616" lon="3.81197">
        <ele>190.09</ele>
        <time>2017-10-09T13:58:01.999Z</time>
      </trkpt>
      <trkpt lat="49.51614" lon="3.81205">
        <ele>190.34</ele>
        <time>2017-10-09T13:58:11.000Z</time>
      </trkpt>
      <trkpt lat="49.51605" lon="3.81229">
        <ele>189.98</ele>
        <time>2017-10-09T13:58:21.000Z</time>
      </trkpt>
      <trkpt lat="49.51597" lon="3.81249">
        <ele>189.76</ele>
        <time>2017-10-09T13:58:31.000Z</time>
      </trkpt>
      <trkpt lat="49.51591" lon="3.81265">
        <ele>189.78</ele>
        <time>2017-10-09T13:58:41.000Z</time>
      </trkpt>
      <trkpt lat="49.51584" lon="3.81282">
        <ele>189.49</ele>
        <time>2017-10-09T13:58:51.000Z</time>
      </trkpt>
      <trkpt lat="49.51576" lon="3.81302">
        <ele>189.38</ele>
        <time>2017-10-09T13:59:01.000Z</time>
      </trkpt>
      <trkpt lat="49.51573" lon="3.81324">
        <ele>189.64</ele>
        <time>2017-10-09T13:59:11.000Z</time>
      </trkpt>
      <trkpt lat="49.51575" lon="3.81328">
        <ele>189.81</ele>
        <time>2017-10-09T13:59:21.000Z</time>
      </trkpt>
      <trkpt lat="49.51573" lon="3.81328">
        <ele>190.51</ele>
        <time>2017-10-09T13:59:31.000Z</time>
      </trkpt>
      <trkpt lat="49.51572" lon="3.8133">
        <ele>190.61</ele>
        <time>2017-10-09T13:59:41.000Z</time>
      </trkpt>
      <trkpt lat="49.51574" lon="3.81333">
        <ele>191.05</ele>
        <time>2017-10-09T13:59:51.000Z</time>
      </trkpt>
      <trkpt lat="49.51573" lon="3.81331">
        <ele>191.27</ele>
        <time>2017-10-09T14:00:01.000Z</time>
      </trkpt>
      <trkpt lat="49.51573" lon="3.8133">
        <ele>191.58</ele>
        <time>2017-10-09T14:00:11.000Z</time>
      </trkpt>
      <trkpt lat="49.51573" lon="3.81328">
        <ele>191.68</ele>
        <time>2017-10-09T14:00:21.000Z</time>
      </trkpt>
      <trkpt lat="49.51574" lon="3.81322">
        <ele>191.87</ele>
        <time>2017-10-09T14:00:31.000Z</time>
      </trkpt>
      <trkpt lat="49.51574" lon="3.81319">
        <ele>192.26</ele>
        <time>2017-10-09T14:00:41.000Z</time>
      </trkpt>
      <trkpt lat="49.51573" lon="3.8132">
        <ele>192.95</ele>
        <time>2017-10-09T14:00:51.000Z</time>
      </trkpt>
      <trkpt lat="49.51572" lon="3.81324">
        <ele>194.2</ele>
        <time>2017-10-09T14:01:01.000Z</time>
      </trkpt>
      <trkpt lat="49.51564" lon="3.81334">
        <ele>195.15</ele>
        <time>2017-10-09T14:01:11.000Z</time>
      </trkpt>
      <trkpt lat="49.51551" lon="3.81343">
        <ele>195.24</ele>
        <time>2017-10-09T14:01:21.000Z</time>
      </trkpt>
      <trkpt lat="49.51542" lon="3.81352">
        <ele>195.94</ele>
        <time>2017-10-09T14:01:31.000Z</time>
      </trkpt>
      <trkpt lat="49.51537" lon="3.81362">
        <ele>196.24</ele>
        <time>2017-10-09T14:01:41.000Z</time>
      </trkpt>
      <trkpt lat="49.51532" lon="3.81383">
        <ele>196.23</ele>
        <time>2017-10-09T14:01:51.000Z</time>
      </trkpt>
      <trkpt lat="49.51527" lon="3.81404">
        <ele>196.43</ele>
        <time>2017-10-09T14:02:01.000Z</time>
      </trkpt>
      <trkpt lat="49.51527" lon="3.81428">
        <ele>196.63</ele>
        <time>2017-10-09T14:02:11.000Z</time>
      </trkpt>
      <trkpt lat="49.51529" lon="3.81446">
        <ele>197.16</ele>
        <time>2017-10-09T14:02:21.000Z</time>
      </trkpt>
      <trkpt lat="49.51529" lon="3.81462">
        <ele>198</ele>
        <time>2017-10-09T14:02:31.000Z</time>
      </trkpt>
      <trkpt lat="49.51531" lon="3.81471">
        <ele>199.48</ele>
        <time>2017-10-09T14:02:41.000Z</time>
      </trkpt>
      <trkpt lat="49.51528" lon="3.81477">
        <ele>200.11</ele>
        <time>2017-10-09T14:02:51.000Z</time>
      </trkpt>
      <trkpt lat="49.51529" lon="3.81483">
        <ele>199.84</ele>
        <time>2017-10-09T14:03:01.000Z</time>
      </trkpt>
      <trkpt lat="49.51528" lon="3.81499">
        <ele>198.58</ele>
        <time>2017-10-09T14:03:11.000Z</time>
      </trkpt>
      <trkpt lat="49.51526" lon="3.81511">
        <ele>197.34</ele>
        <time>2017-10-09T14:03:21.000Z</time>
      </trkpt>
      <trkpt lat="49.51524" lon="3.8153">
        <ele>195.45</ele>
        <time>2017-10-09T14:03:31.000Z</time>
      </trkpt>
      <trkpt lat="49.51521" lon="3.81553">
        <ele>193.84</ele>
        <time>2017-10-09T14:03:41.000Z</time>
      </trkpt>
      <trkpt lat="49.51515" lon="3.81577">
        <ele>193.44</ele>
        <time>2017-10-09T14:03:51.000Z</time>
      </trkpt>
      <trkpt lat="49.5151" lon="3.81594">
        <ele>194.3</ele>
        <time>2017-10-09T14:04:01.000Z</time>
      </trkpt>
      <trkpt lat="49.51509" lon="3.81605">
        <ele>195.4</ele>
        <time>2017-10-09T14:04:11.000Z</time>
      </trkpt>
      <trkpt lat="49.51509" lon="3.81621">
        <ele>196.09</ele>
        <time>2017-10-09T14:04:21.000Z</time>
      </trkpt>
      <trkpt lat="49.51508" lon="3.81631">
        <ele>196.25</ele>
        <time>2017-10-09T14:04:31.000Z</time>
      </trkpt>
      <trkpt lat="49.51508" lon="3.81642">
        <ele>195.9</ele>
        <time>2017-10-09T14:04:41.000Z</time>
      </trkpt>
      <trkpt lat="49.51509" lon="3.81652">
        <ele>194.81</ele>
        <time>2017-10-09T14:04:51.000Z</time>
      </trkpt>
      <trkpt lat="49.51506" lon="3.81669">
        <ele>192.67</ele>
        <time>2017-10-09T14:05:01.000Z</time>
      </trkpt>
      <trkpt lat="49.515" lon="3.81693">
        <ele>190.37</ele>
        <time>2017-10-09T14:05:11.000Z</time>
      </trkpt>
      <trkpt lat="49.51498" lon="3.81706">
        <ele>189.11</ele>
        <time>2017-10-09T14:05:21.000Z</time>
      </trkpt>
      <trkpt lat="49.51492" lon="3.81721">
        <ele>189.17</ele>
        <time>2017-10-09T14:05:31.000Z</time>
      </trkpt>
      <trkpt lat="49.51486" lon="3.81736">
        <ele>190.54</ele>
        <time>2017-10-09T14:05:41.000Z</time>
      </trkpt>
      <trkpt lat="49.51484" lon="3.81745">
        <ele>191.9</ele>
        <time>2017-10-09T14:05:51.000Z</time>
      </trkpt>
      <trkpt lat="49.51481" lon="3.81761">
        <ele>193.45</ele>
        <time>2017-10-09T14:06:01.000Z</time>
      </trkpt>
      <trkpt lat="49.5148" lon="3.81778">
        <ele>194.74</ele>
        <time>2017-10-09T14:06:11.000Z</time>
      </trkpt>
      <trkpt lat="49.51479" lon="3.81795">
        <ele>196.58</ele>
        <time>2017-10-09T14:06:21.000Z</time>
      </trkpt>
      <trkpt lat="49.51481" lon="3.81804">
        <ele>197.96</ele>
        <time>2017-10-09T14:06:31.000Z</time>
      </trkpt>
      <trkpt lat="49.51484" lon="3.81813">
        <ele>198.42</ele>
        <time>2017-10-09T14:06:41.000Z</time>
      </trkpt>
      <trkpt lat="49.51487" lon="3.81828">
        <ele>198.63</ele>
        <time>2017-10-09T14:06:51.000Z</time>
      </trkpt>
      <trkpt lat="49.51488" lon="3.81847">
        <ele>198.41</ele>
        <time>2017-10-09T14:07:01.000Z</time>
      </trkpt>
      <trkpt lat="49.51484" lon="3.81863">
        <ele>197.06</ele>
        <time>2017-10-09T14:07:11.000Z</time>
      </trkpt>
      <trkpt lat="49.51485" lon="3.81874">
        <ele>193.8</ele>
        <time>2017-10-09T14:07:21.000Z</time>
      </trkpt>
      <trkpt lat="49.51483" lon="3.81911">
        <ele>190.81</ele>
        <time>2017-10-09T14:07:31.000Z</time>
      </trkpt>
      <trkpt lat="49.51475" lon="3.81934">
        <ele>189.28</ele>
        <time>2017-10-09T14:07:41.000Z</time>
      </trkpt>
      <trkpt lat="49.51473" lon="3.81952">
        <ele>188.48</ele>
        <time>2017-10-09T14:07:51.000Z</time>
      </trkpt>
      <trkpt lat="49.5147" lon="3.81972">
        <ele>188.67</ele>
        <time>2017-10-09T14:08:01.000Z</time>
      </trkpt>
      <trkpt lat="49.5147" lon="3.81994">
        <ele>189.41</ele>
        <time>2017-10-09T14:08:11.000Z</time>
      </trkpt>
      <trkpt lat="49.5147" lon="3.82016">
        <ele>189.83</ele>
        <time>2017-10-09T14:08:21.000Z</time>
      </trkpt>
      <trkpt lat="49.51469" lon="3.8203">
        <ele>190.23</ele>
        <time>2017-10-09T14:08:31.000Z</time>
      </trkpt>
      <trkpt lat="49.51468" lon="3.82043">
        <ele>190.92</ele>
        <time>2017-10-09T14:08:41.000Z</time>
      </trkpt>
      <trkpt lat="49.51467" lon="3.82062">
        <ele>191.12</ele>
        <time>2017-10-09T14:08:51.000Z</time>
      </trkpt>
      <trkpt lat="49.51465" lon="3.82081">
        <ele>191.53</ele>
        <time>2017-10-09T14:09:01.000Z</time>
      </trkpt>
      <trkpt lat="49.51463" lon="3.82101">
        <ele>191.7</ele>
        <time>2017-10-09T14:09:11.000Z</time>
      </trkpt>
      <trkpt lat="49.5146" lon="3.82118">
        <ele>191.94</ele>
        <time>2017-10-09T14:09:21.000Z</time>
      </trkpt>
      <trkpt lat="49.51458" lon="3.82137">
        <ele>192.44</ele>
        <time>2017-10-09T14:09:31.000Z</time>
      </trkpt>
      <trkpt lat="49.51456" lon="3.82159">
        <ele>193.09</ele>
        <time>2017-10-09T14:09:41.000Z</time>
      </trkpt>
      <trkpt lat="49.51455" lon="3.8218">
        <ele>194.02</ele>
        <time>2017-10-09T14:09:51.000Z</time>
      </trkpt>
      <trkpt lat="49.51454" lon="3.82199">
        <ele>195.02</ele>
        <time>2017-10-09T14:10:01.000Z</time>
      </trkpt>
      <trkpt lat="49.51453" lon="3.8222">
        <ele>196.07</ele>
        <time>2017-10-09T14:10:11.000Z</time>
      </trkpt>
      <trkpt lat="49.51452" lon="3.82234">
        <ele>197.05</ele>
        <time>2017-10-09T14:10:21.000Z</time>
      </trkpt>
      <trkpt lat="49.51451" lon="3.82253">
        <ele>197.81</ele>
        <time>2017-10-09T14:10:31.000Z</time>
      </trkpt>
      <trkpt lat="49.51449" lon="3.8227">
        <ele>198.6</ele>
        <time>2017-10-09T14:10:41.000Z</time>
      </trkpt>
      <trkpt lat="49.51447" lon="3.82286">
        <ele>199.37</ele>
        <time>2017-10-09T14:10:51.000Z</time>
      </trkpt>
      <trkpt lat="49.51445" lon="3.82304">
        <ele>200.19</ele>
        <time>2017-10-09T14:11:01.000Z</time>
      </trkpt>
      <trkpt lat="49.51442" lon="3.82316">
        <ele>201.36</ele>
        <time>2017-10-09T14:11:11.000Z</time>
      </trkpt>
      <trkpt lat="49.51439" lon="3.82337">
        <ele>202.52</ele>
        <time>2017-10-09T14:11:21.000Z</time>
      </trkpt>
      <trkpt lat="49.51439" lon="3.82353">
        <ele>203.57</ele>
        <time>2017-10-09T14:11:31.000Z</time>
      </trkpt>
      <trkpt lat="49.51435" lon="3.82373">
        <ele>204.35</ele>
        <time>2017-10-09T14:11:41.000Z</time>
      </trkpt>
      <trkpt lat="49.51434" lon="3.82394">
        <ele>204.97</ele>
        <time>2017-10-09T14:11:51.000Z</time>
      </trkpt>
      <trkpt lat="49.51434" lon="3.82416">
        <ele>205.47</ele>
        <time>2017-10-09T14:12:01.000Z</time>
      </trkpt>
      <trkpt lat="49.51433" lon="3.82432">
        <ele>205.49</ele>
        <time>2017-10-09T14:12:11.000Z</time>
      </trkpt>
      <trkpt lat="49.51431" lon="3.82453">
        <ele>205.15</ele>
        <time>2017-10-09T14:12:21.000Z</time>
      </trkpt>
      <trkpt lat="49.51429" lon="3.82474">
        <ele>205.01</ele>
        <time>2017-10-09T14:12:31.000Z</time>
      </trkpt>
      <trkpt lat="49.51426" lon="3.82492">
        <ele>205.22</ele>
        <time>2017-10-09T14:12:41.000Z</time>
      </trkpt>
      <trkpt lat="49.51425" lon="3.82512">
        <ele>205.3</ele>
        <time>2017-10-09T14:12:51.000Z</time>
      </trkpt>
      <trkpt lat="49.5142" lon="3.82535">
        <ele>205.64</ele>
        <time>2017-10-09T14:13:01.000Z</time>
      </trkpt>
      <trkpt lat="49.51417" lon="3.82552">
        <ele>206.48</ele>
        <time>2017-10-09T14:13:11.000Z</time>
      </trkpt>
      <trkpt lat="49.51413" lon="3.82577">
        <ele>207.43</ele>
        <time>2017-10-09T14:13:21.000Z</time>
      </trkpt>
      <trkpt lat="49.5141" lon="3.82595">
        <ele>208.83</ele>
        <time>2017-10-09T14:13:31.000Z</time>
      </trkpt>
      <trkpt lat="49.51408" lon="3.82613">
        <ele>209.1</ele>
        <time>2017-10-09T14:13:41.000Z</time>
      </trkpt>
      <trkpt lat="49.51403" lon="3.82635">
        <ele>209.19</ele>
        <time>2017-10-09T14:13:51.000Z</time>
      </trkpt>
      <trkpt lat="49.51399" lon="3.82653">
        <ele>208.71</ele>
        <time>2017-10-09T14:14:01.000Z</time>
      </trkpt>
      <trkpt lat="49.51396" lon="3.82675">
        <ele>208.25</ele>
        <time>2017-10-09T14:14:11.000Z</time>
      </trkpt>
      <trkpt lat="49.51395" lon="3.82688">
        <ele>208.16</ele>
        <time>2017-10-09T14:14:21.000Z</time>
      </trkpt>
      <trkpt lat="49.51392" lon="3.82707">
        <ele>208.1</ele>
        <time>2017-10-09T14:14:31.000Z</time>
      </trkpt>
      <trkpt lat="49.51389" lon="3.82721">
        <ele>207.1</ele>
        <time>2017-10-09T14:14:41.000Z</time>
      </trkpt>
      <trkpt lat="49.51384" lon="3.8274">
        <ele>206.31</ele>
        <time>2017-10-09T14:14:51.000Z</time>
      </trkpt>
      <trkpt lat="49.51378" lon="3.82764">
        <ele>205.73</ele>
        <time>2017-10-09T14:15:01.000Z</time>
      </trkpt>
      <trkpt lat="49.51373" lon="3.82784">
        <ele>205.3</ele>
        <time>2017-10-09T14:15:11.000Z</time>
      </trkpt>
      <trkpt lat="49.51372" lon="3.82801">
        <ele>204.58</ele>
        <time>2017-10-09T14:15:21.000Z</time>
      </trkpt>
      <trkpt lat="49.51364" lon="3.82823">
        <ele>204.13</ele>
        <time>2017-10-09T14:15:31.000Z</time>
      </trkpt>
      <trkpt lat="49.51369" lon="3.82832">
        <ele>204.05</ele>
        <time>2017-10-09T14:15:41.000Z</time>
      </trkpt>
      <trkpt lat="49.51386" lon="3.82835">
        <ele>204.83</ele>
        <time>2017-10-09T14:15:51.000Z</time>
      </trkpt>
      <trkpt lat="49.51399" lon="3.82836">
        <ele>206.17</ele>
        <time>2017-10-09T14:16:01.000Z</time>
      </trkpt>
      <trkpt lat="49.51411" lon="3.82843">
        <ele>207.11</ele>
        <time>2017-10-09T14:16:11.000Z</time>
      </trkpt>
      <trkpt lat="49.51419" lon="3.82848">
        <ele>207.32</ele>
        <time>2017-10-09T14:16:21.000Z</time>
      </trkpt>
      <trkpt lat="49.51421" lon="3.82847">
        <ele>207.41</ele>
        <time>2017-10-09T14:16:31.000Z</time>
      </trkpt>
      <trkpt lat="49.51418" lon="3.82847">
        <ele>207.29</ele>
        <time>2017-10-09T14:16:41.000Z</time>
      </trkpt>
      <trkpt lat="49.51419" lon="3.8284">
        <ele>207.08</ele>
        <time>2017-10-09T14:16:51.000Z</time>
      </trkpt>
      <trkpt lat="49.5142" lon="3.82839">
        <ele>206.97</ele>
        <time>2017-10-09T14:17:04.000Z</time>
      </trkpt>
      <trkpt lat="49.51416" lon="3.82837">
        <ele>206.73</ele>
        <time>2017-10-09T14:17:14.000Z</time>
      </trkpt>
      <trkpt lat="49.51415" lon="3.82837">
        <ele>206.63</ele>
        <time>2017-10-09T14:17:26.000Z</time>
      </trkpt>
      <trkpt lat="49.51412" lon="3.82837">
        <ele>207.18</ele>
        <time>2017-10-09T14:17:36.000Z</time>
      </trkpt>
      <trkpt lat="49.51409" lon="3.82839">
        <ele>207.71</ele>
        <time>2017-10-09T14:17:46.000Z</time>
      </trkpt>
      <trkpt lat="49.51416" lon="3.82845">
        <ele>208.09</ele>
        <time>2017-10-09T14:17:56.000Z</time>
      </trkpt>
      <trkpt lat="49.51418" lon="3.82842">
        <ele>208.62</ele>
        <time>2017-10-09T14:18:06.000Z</time>
      </trkpt>
      <trkpt lat="49.51415" lon="3.82838">
        <ele>208.39</ele>
        <time>2017-10-09T14:18:16.000Z</time>
      </trkpt>
      <trkpt lat="49.51405" lon="3.82848">
        <ele>208.47</ele>
        <time>2017-10-09T14:18:26.000Z</time>
      </trkpt>
      <trkpt lat="49.51401" lon="3.82845">
        <ele>207.93</ele>
        <time>2017-10-09T14:18:36.000Z</time>
      </trkpt>
      <trkpt lat="49.51402" lon="3.82854">
        <ele>207.63</ele>
        <time>2017-10-09T14:18:46.000Z</time>
      </trkpt>
      <trkpt lat="49.51404" lon="3.82854">
        <ele>207.1</ele>
        <time>2017-10-09T14:19:09.000Z</time>
      </trkpt>
      <trkpt lat="49.51411" lon="3.8285">
        <ele>207.11</ele>
        <time>2017-10-09T14:19:19.000Z</time>
      </trkpt>
      <trkpt lat="49.51418" lon="3.82844">
        <ele>207.26</ele>
        <time>2017-10-09T14:19:29.000Z</time>
      </trkpt>
      <trkpt lat="49.51426" lon="3.82838">
        <ele>207.71</ele>
        <time>2017-10-09T14:19:39.000Z</time>
      </trkpt>
      <trkpt lat="49.51436" lon="3.82836">
        <ele>207.82</ele>
        <time>2017-10-09T14:19:49.000Z</time>
      </trkpt>
      <trkpt lat="49.51448" lon="3.82834">
        <ele>207.97</ele>
        <time>2017-10-09T14:19:59.000Z</time>
      </trkpt>
      <trkpt lat="49.51454" lon="3.8283">
        <ele>207.91</ele>
        <time>2017-10-09T14:20:09.000Z</time>
      </trkpt>
      <trkpt lat="49.51463" lon="3.82824">
        <ele>207</ele>
        <time>2017-10-09T14:20:19.000Z</time>
      </trkpt>
      <trkpt lat="49.51472" lon="3.82816">
        <ele>207.42</ele>
        <time>2017-10-09T14:20:29.000Z</time>
      </trkpt>
      <trkpt lat="49.51478" lon="3.82809">
        <ele>208.02</ele>
        <time>2017-10-09T14:20:39.000Z</time>
      </trkpt>
      <trkpt lat="49.51486" lon="3.82799">
        <ele>208.27</ele>
        <time>2017-10-09T14:20:49.000Z</time>
      </trkpt>
      <trkpt lat="49.51495" lon="3.82789">
        <ele>208.38</ele>
        <time>2017-10-09T14:20:59.000Z</time>
      </trkpt>
      <trkpt lat="49.51504" lon="3.82779">
        <ele>208</ele>
        <time>2017-10-09T14:21:09.000Z</time>
      </trkpt>
      <trkpt lat="49.51511" lon="3.82773">
        <ele>207.93</ele>
        <time>2017-10-09T14:21:19.000Z</time>
      </trkpt>
      <trkpt lat="49.51512" lon="3.82776">
        <ele>208.25</ele>
        <time>2017-10-09T14:21:29.000Z</time>
      </trkpt>
      <trkpt lat="49.51512" lon="3.82779">
        <ele>208.6</ele>
        <time>2017-10-09T14:21:39.000Z</time>
      </trkpt>
      <trkpt lat="49.51511" lon="3.82778">
        <ele>209.18</ele>
        <time>2017-10-09T14:21:49.000Z</time>
      </trkpt>
      <trkpt lat="49.51515" lon="3.82766">
        <ele>209.38</ele>
        <time>2017-10-09T14:21:59.000Z</time>
      </trkpt>
      <trkpt lat="49.51526" lon="3.82759">
        <ele>208.72</ele>
        <time>2017-10-09T14:22:09.000Z</time>
      </trkpt>
      <trkpt lat="49.51537" lon="3.8275">
        <ele>208.09</ele>
        <time>2017-10-09T14:22:19.000Z</time>
      </trkpt>
      <trkpt lat="49.51545" lon="3.82749">
        <ele>207.03</ele>
        <time>2017-10-09T14:22:29.000Z</time>
      </trkpt>
      <trkpt lat="49.51554" lon="3.82754">
        <ele>205.87</ele>
        <time>2017-10-09T14:22:39.000Z</time>
      </trkpt>
      <trkpt lat="49.51564" lon="3.82758">
        <ele>205.13</ele>
        <time>2017-10-09T14:22:49.000Z</time>
      </trkpt>
      <trkpt lat="49.51575" lon="3.82756">
        <ele>204.85</ele>
        <time>2017-10-09T14:22:58.999Z</time>
      </trkpt>
      <trkpt lat="49.51581" lon="3.82758">
        <ele>204.75</ele>
        <time>2017-10-09T14:23:08.999Z</time>
      </trkpt>
      <trkpt lat="49.51598" lon="3.8276">
        <ele>204.56</ele>
        <time>2017-10-09T14:23:18.999Z</time>
      </trkpt>
      <trkpt lat="49.51614" lon="3.8276">
        <ele>205.52</ele>
        <time>2017-10-09T14:23:28.999Z</time>
      </trkpt>
      <trkpt lat="49.51621" lon="3.8276">
        <ele>207.17</ele>
        <time>2017-10-09T14:23:38.999Z</time>
      </trkpt>
      <trkpt lat="49.51635" lon="3.82764">
        <ele>208.59</ele>
        <time>2017-10-09T14:23:48.999Z</time>
      </trkpt>
      <trkpt lat="49.51647" lon="3.82762">
        <ele>210.25</ele>
        <time>2017-10-09T14:23:58.999Z</time>
      </trkpt>
      <trkpt lat="49.5166" lon="3.82766">
        <ele>212.05</ele>
        <time>2017-10-09T14:24:08.999Z</time>
      </trkpt>
      <trkpt lat="49.51666" lon="3.8277">
        <ele>213.13</ele>
        <time>2017-10-09T14:24:18.999Z</time>
      </trkpt>
      <trkpt lat="49.51673" lon="3.82777">
        <ele>213.77</ele>
        <time>2017-10-09T14:24:28.999Z</time>
      </trkpt>
      <trkpt lat="49.5168" lon="3.82794">
        <ele>213.34</ele>
        <time>2017-10-09T14:24:38.999Z</time>
      </trkpt>
      <trkpt lat="49.51685" lon="3.82804">
        <ele>212.67</ele>
        <time>2017-10-09T14:24:48.999Z</time>
      </trkpt>
      <trkpt lat="49.51693" lon="3.82823">
        <ele>211.98</ele>
        <time>2017-10-09T14:24:58.999Z</time>
      </trkpt>
      <trkpt lat="49.517" lon="3.82835">
        <ele>211.29</ele>
        <time>2017-10-09T14:25:08.999Z</time>
      </trkpt>
      <trkpt lat="49.51708" lon="3.82851">
        <ele>210.98</ele>
        <time>2017-10-09T14:25:18.999Z</time>
      </trkpt>
      <trkpt lat="49.51721" lon="3.82862">
        <ele>210.64</ele>
        <time>2017-10-09T14:25:28.999Z</time>
      </trkpt>
      <trkpt lat="49.51727" lon="3.82875">
        <ele>210.33</ele>
        <time>2017-10-09T14:25:38.999Z</time>
      </trkpt>
      <trkpt lat="49.51731" lon="3.82889">
        <ele>210.32</ele>
        <time>2017-10-09T14:25:48.999Z</time>
      </trkpt>
      <trkpt lat="49.51745" lon="3.82895">
        <ele>210</ele>
        <time>2017-10-09T14:25:58.999Z</time>
      </trkpt>
      <trkpt lat="49.51751" lon="3.829">
        <ele>209.89</ele>
        <time>2017-10-09T14:26:08.999Z</time>
      </trkpt>
      <trkpt lat="49.51749" lon="3.82897">
        <ele>209.77</ele>
        <time>2017-10-09T14:26:18.999Z</time>
      </trkpt>
      <trkpt lat="49.5175" lon="3.82902">
        <ele>208.84</ele>
        <time>2017-10-09T14:26:28.999Z</time>
      </trkpt>
      <trkpt lat="49.51762" lon="3.82909">
        <ele>207.61</ele>
        <time>2017-10-09T14:26:38.999Z</time>
      </trkpt>
      <trkpt lat="49.51767" lon="3.82911">
        <ele>207.25</ele>
        <time>2017-10-09T14:26:48.999Z</time>
      </trkpt>
      <trkpt lat="49.51783" lon="3.82909">
        <ele>206.94</ele>
        <time>2017-10-09T14:26:58.999Z</time>
      </trkpt>
      <trkpt lat="49.51798" lon="3.82911">
        <ele>207.36</ele>
        <time>2017-10-09T14:27:08.999Z</time>
      </trkpt>
      <trkpt lat="49.51813" lon="3.82905">
        <ele>208.13</ele>
        <time>2017-10-09T14:27:18.999Z</time>
      </trkpt>
      <trkpt lat="49.51824" lon="3.82899">
        <ele>208.44</ele>
        <time>2017-10-09T14:27:28.999Z</time>
      </trkpt>
      <trkpt lat="49.51835" lon="3.82892">
        <ele>207.79</ele>
        <time>2017-10-09T14:27:38.999Z</time>
      </trkpt>
      <trkpt lat="49.51843" lon="3.82884">
        <ele>206.59</ele>
        <time>2017-10-09T14:27:48.999Z</time>
      </trkpt>
      <trkpt lat="49.51856" lon="3.82874">
        <ele>205.94</ele>
        <time>2017-10-09T14:27:58.999Z</time>
      </trkpt>
      <trkpt lat="49.5187" lon="3.82862">
        <ele>205.7</ele>
        <time>2017-10-09T14:28:08.999Z</time>
      </trkpt>
      <trkpt lat="49.51884" lon="3.82851">
        <ele>205.99</ele>
        <time>2017-10-09T14:28:18.999Z</time>
      </trkpt>
      <trkpt lat="49.51893" lon="3.82841">
        <ele>206.95</ele>
        <time>2017-10-09T14:28:28.999Z</time>
      </trkpt>
      <trkpt lat="49.51905" lon="3.82834">
        <ele>208.35</ele>
        <time>2017-10-09T14:28:38.999Z</time>
      </trkpt>
      <trkpt lat="49.51918" lon="3.82832">
        <ele>209.42</ele>
        <time>2017-10-09T14:28:48.999Z</time>
      </trkpt>
      <trkpt lat="49.51928" lon="3.82835">
        <ele>210.29</ele>
        <time>2017-10-09T14:28:58.999Z</time>
      </trkpt>
      <trkpt lat="49.51938" lon="3.82841">
        <ele>210.87</ele>
        <time>2017-10-09T14:29:08.999Z</time>
      </trkpt>
      <trkpt lat="49.51946" lon="3.82849">
        <ele>210.55</ele>
        <time>2017-10-09T14:29:18.999Z</time>
      </trkpt>
      <trkpt lat="49.51959" lon="3.82859">
        <ele>210.28</ele>
        <time>2017-10-09T14:29:28.999Z</time>
      </trkpt>
      <trkpt lat="49.51968" lon="3.82867">
        <ele>210.55</ele>
        <time>2017-10-09T14:29:38.999Z</time>
      </trkpt>
      <trkpt lat="49.51973" lon="3.82877">
        <ele>210.26</ele>
        <time>2017-10-09T14:29:48.999Z</time>
      </trkpt>
      <trkpt lat="49.51982" lon="3.82884">
        <ele>209.25</ele>
        <time>2017-10-09T14:29:58.999Z</time>
      </trkpt>
      <trkpt lat="49.51989" lon="3.82891">
        <ele>208.11</ele>
        <time>2017-10-09T14:30:08.999Z</time>
      </trkpt>
      <trkpt lat="49.52005" lon="3.82904">
        <ele>207.83</ele>
        <time>2017-10-09T14:30:18.999Z</time>
      </trkpt>
      <trkpt lat="49.52012" lon="3.8291">
        <ele>208.08</ele>
        <time>2017-10-09T14:30:28.999Z</time>
      </trkpt>
      <trkpt lat="49.52021" lon="3.82918">
        <ele>208.38</ele>
        <time>2017-10-09T14:30:38.999Z</time>
      </trkpt>
      <trkpt lat="49.52026" lon="3.82926">
        <ele>208.17</ele>
        <time>2017-10-09T14:30:48.999Z</time>
      </trkpt>
      <trkpt lat="49.52041" lon="3.8294">
        <ele>207.29</ele>
        <time>2017-10-09T14:30:58.999Z</time>
      </trkpt>
      <trkpt lat="49.5205" lon="3.82948">
        <ele>206.97</ele>
        <time>2017-10-09T14:31:08.999Z</time>
      </trkpt>
      <trkpt lat="49.52057" lon="3.82962">
        <ele>206.66</ele>
        <time>2017-10-09T14:31:18.999Z</time>
      </trkpt>
      <trkpt lat="49.52062" lon="3.82969">
        <ele>206.26</ele>
        <time>2017-10-09T14:31:28.999Z</time>
      </trkpt>
      <trkpt lat="49.52072" lon="3.82977">
        <ele>205.82</ele>
        <time>2017-10-09T14:31:38.999Z</time>
      </trkpt>
      <trkpt lat="49.5208" lon="3.82994">
        <ele>206.1</ele>
        <time>2017-10-09T14:31:48.999Z</time>
      </trkpt>
      <trkpt lat="49.52088" lon="3.83002">
        <ele>206.46</ele>
        <time>2017-10-09T14:31:58.999Z</time>
      </trkpt>
      <trkpt lat="49.52097" lon="3.83014">
        <ele>206.75</ele>
        <time>2017-10-09T14:32:08.999Z</time>
      </trkpt>
      <trkpt lat="49.52107" lon="3.83025">
        <ele>206.67</ele>
        <time>2017-10-09T14:32:18.999Z</time>
      </trkpt>
      <trkpt lat="49.52111" lon="3.83034">
        <ele>206.61</ele>
        <time>2017-10-09T14:32:28.999Z</time>
      </trkpt>
      <trkpt lat="49.52121" lon="3.83046">
        <ele>206.25</ele>
        <time>2017-10-09T14:32:38.999Z</time>
      </trkpt>
      <trkpt lat="49.52126" lon="3.83056">
        <ele>204.9</ele>
        <time>2017-10-09T14:32:48.999Z</time>
      </trkpt>
      <trkpt lat="49.52136" lon="3.8307">
        <ele>204.37</ele>
        <time>2017-10-09T14:32:58.999Z</time>
      </trkpt>
      <trkpt lat="49.52144" lon="3.83081">
        <ele>204.67</ele>
        <time>2017-10-09T14:33:08.999Z</time>
      </trkpt>
      <trkpt lat="49.52155" lon="3.83092">
        <ele>204.93</ele>
        <time>2017-10-09T14:33:18.999Z</time>
      </trkpt>
      <trkpt lat="49.52165" lon="3.83102">
        <ele>204.77</ele>
        <time>2017-10-09T14:33:28.999Z</time>
      </trkpt>
      <trkpt lat="49.5217" lon="3.83114">
        <ele>204.11</ele>
        <time>2017-10-09T14:33:38.999Z</time>
      </trkpt>
      <trkpt lat="49.52176" lon="3.83121">
        <ele>203.97</ele>
        <time>2017-10-09T14:33:48.999Z</time>
      </trkpt>
      <trkpt lat="49.52185" lon="3.83144">
        <ele>203.54</ele>
        <time>2017-10-09T14:33:58.999Z</time>
      </trkpt>
      <trkpt lat="49.52191" lon="3.83157">
        <ele>203.6</ele>
        <time>2017-10-09T14:34:08.999Z</time>
      </trkpt>
      <trkpt lat="49.52197" lon="3.83169">
        <ele>204.08</ele>
        <time>2017-10-09T14:34:18.999Z</time>
      </trkpt>
      <trkpt lat="49.52205" lon="3.83182">
        <ele>204.53</ele>
        <time>2017-10-09T14:34:28.999Z</time>
      </trkpt>
      <trkpt lat="49.52209" lon="3.83194">
        <ele>205.03</ele>
        <time>2017-10-09T14:34:38.999Z</time>
      </trkpt>
      <trkpt lat="49.52219" lon="3.83216">
        <ele>205.42</ele>
        <time>2017-10-09T14:34:48.999Z</time>
      </trkpt>
      <trkpt lat="49.5222" lon="3.83228">
        <ele>205.28</ele>
        <time>2017-10-09T14:34:58.999Z</time>
      </trkpt>
      <trkpt lat="49.5223" lon="3.83233">
        <ele>204.57</ele>
        <time>2017-10-09T14:35:08.999Z</time>
      </trkpt>
      <trkpt lat="49.52235" lon="3.83249">
        <ele>203.83</ele>
        <time>2017-10-09T14:35:18.999Z</time>
      </trkpt>
      <trkpt lat="49.52233" lon="3.83267">
        <ele>202.99</ele>
        <time>2017-10-09T14:35:28.999Z</time>
      </trkpt>
      <trkpt lat="49.52237" lon="3.83287">
        <ele>202.69</ele>
        <time>2017-10-09T14:35:38.999Z</time>
      </trkpt>
      <trkpt lat="49.52239" lon="3.83301">
        <ele>202.68</ele>
        <time>2017-10-09T14:35:48.999Z</time>
      </trkpt>
      <trkpt lat="49.52242" lon="3.83311">
        <ele>203.12</ele>
        <time>2017-10-09T14:35:58.999Z</time>
      </trkpt>
      <trkpt lat="49.52243" lon="3.83335">
        <ele>203.98</ele>
        <time>2017-10-09T14:36:08.999Z</time>
      </trkpt>
      <trkpt lat="49.52246" lon="3.83354">
        <ele>205.35</ele>
        <time>2017-10-09T14:36:18.999Z</time>
      </trkpt>
      <trkpt lat="49.52248" lon="3.83371">
        <ele>206.27</ele>
        <time>2017-10-09T14:36:28.999Z</time>
      </trkpt>
      <trkpt lat="49.52252" lon="3.83388">
        <ele>206.11</ele>
        <time>2017-10-09T14:36:38.999Z</time>
      </trkpt>
      <trkpt lat="49.52253" lon="3.83401">
        <ele>206.17</ele>
        <time>2017-10-09T14:36:48.999Z</time>
      </trkpt>
      <trkpt lat="49.52258" lon="3.83416">
        <ele>206.01</ele>
        <time>2017-10-09T14:36:58.999Z</time>
      </trkpt>
      <trkpt lat="49.52262" lon="3.8343">
        <ele>205.6</ele>
        <time>2017-10-09T14:37:08.999Z</time>
      </trkpt>
      <trkpt lat="49.52263" lon="3.83448">
        <ele>205.29</ele>
        <time>2017-10-09T14:37:18.999Z</time>
      </trkpt>
      <trkpt lat="49.52266" lon="3.83463">
        <ele>204.66</ele>
        <time>2017-10-09T14:37:28.999Z</time>
      </trkpt>
      <trkpt lat="49.52267" lon="3.83487">
        <ele>204.7</ele>
        <time>2017-10-09T14:37:38.999Z</time>
      </trkpt>
      <trkpt lat="49.52269" lon="3.83501">
        <ele>205.28</ele>
        <time>2017-10-09T14:37:48.999Z</time>
      </trkpt>
      <trkpt lat="49.52277" lon="3.83512">
        <ele>205.46</ele>
        <time>2017-10-09T14:37:58.999Z</time>
      </trkpt>
      <trkpt lat="49.52285" lon="3.83514">
        <ele>205.88</ele>
        <time>2017-10-09T14:38:08.999Z</time>
      </trkpt>
      <trkpt lat="49.52293" lon="3.83513">
        <ele>206.75</ele>
        <time>2017-10-09T14:38:18.999Z</time>
      </trkpt>
      <trkpt lat="49.52305" lon="3.83513">
        <ele>206.61</ele>
        <time>2017-10-09T14:38:28.999Z</time>
      </trkpt>
      <trkpt lat="49.52313" lon="3.83506">
        <ele>206.4</ele>
        <time>2017-10-09T14:38:38.999Z</time>
      </trkpt>
      <trkpt lat="49.5232" lon="3.83503">
        <ele>205.88</ele>
        <time>2017-10-09T14:38:48.999Z</time>
      </trkpt>
      <trkpt lat="49.5233" lon="3.83499">
        <ele>205.56</ele>
        <time>2017-10-09T14:38:58.999Z</time>
      </trkpt>
      <trkpt lat="49.52342" lon="3.83501">
        <ele>205.9</ele>
        <time>2017-10-09T14:39:08.999Z</time>
      </trkpt>
      <trkpt lat="49.52353" lon="3.83498">
        <ele>205.29</ele>
        <time>2017-10-09T14:39:18.999Z</time>
      </trkpt>
      <trkpt lat="49.52365" lon="3.83492">
        <ele>205.46</ele>
        <time>2017-10-09T14:39:28.999Z</time>
      </trkpt>
      <trkpt lat="49.52371" lon="3.83483">
        <ele>205.47</ele>
        <time>2017-10-09T14:39:38.999Z</time>
      </trkpt>
      <trkpt lat="49.52377" lon="3.83476">
        <ele>205.66</ele>
        <time>2017-10-09T14:39:48.999Z</time>
      </trkpt>
      <trkpt lat="49.52388" lon="3.83467">
        <ele>205.4</ele>
        <time>2017-10-09T14:39:58.999Z</time>
      </trkpt>
      <trkpt lat="49.52392" lon="3.83459">
        <ele>205.52</ele>
        <time>2017-10-09T14:40:08.999Z</time>
      </trkpt>
      <trkpt lat="49.52394" lon="3.83452">
        <ele>206.34</ele>
        <time>2017-10-09T14:40:18.999Z</time>
      </trkpt>
      <trkpt lat="49.52399" lon="3.83445">
        <ele>206.96</ele>
        <time>2017-10-09T14:40:28.999Z</time>
      </trkpt>
      <trkpt lat="49.52402" lon="3.83445">
        <ele>206.82</ele>
        <time>2017-10-09T14:40:38.999Z</time>
      </trkpt>
      <trkpt lat="49.52402" lon="3.83443">
        <ele>206.5</ele>
        <time>2017-10-09T14:40:48.999Z</time>
      </trkpt>
      <trkpt lat="49.52404" lon="3.83436">
        <ele>206.49</ele>
        <time>2017-10-09T14:40:58.999Z</time>
      </trkpt>
      <trkpt lat="49.52409" lon="3.83431">
        <ele>206.17</ele>
        <time>2017-10-09T14:41:08.999Z</time>
      </trkpt>
      <trkpt lat="49.5241" lon="3.83428">
        <ele>205.71</ele>
        <time>2017-10-09T14:41:18.999Z</time>
      </trkpt>
      <trkpt lat="49.52413" lon="3.83419">
        <ele>204.34</ele>
        <time>2017-10-09T14:41:28.999Z</time>
      </trkpt>
      <trkpt lat="49.5242" lon="3.83416">
        <ele>202.83</ele>
        <time>2017-10-09T14:41:38.999Z</time>
      </trkpt>
      <trkpt lat="49.52423" lon="3.83411">
        <ele>201.32</ele>
        <time>2017-10-09T14:41:48.999Z</time>
      </trkpt>
      <trkpt lat="49.52426" lon="3.83402">
        <ele>199.78</ele>
        <time>2017-10-09T14:41:58.999Z</time>
      </trkpt>
      <trkpt lat="49.52426" lon="3.83394">
        <ele>197.8</ele>
        <time>2017-10-09T14:42:08.999Z</time>
      </trkpt>
      <trkpt lat="49.52428" lon="3.83391">
        <ele>196.49</ele>
        <time>2017-10-09T14:42:18.999Z</time>
      </trkpt>
      <trkpt lat="49.52431" lon="3.83382">
        <ele>194.51</ele>
        <time>2017-10-09T14:42:28.999Z</time>
      </trkpt>
      <trkpt lat="49.52433" lon="3.83377">
        <ele>192.94</ele>
        <time>2017-10-09T14:42:38.999Z</time>
      </trkpt>
      <trkpt lat="49.52438" lon="3.83372">
        <ele>191.6</ele>
        <time>2017-10-09T14:42:48.999Z</time>
      </trkpt>
      <trkpt lat="49.52444" lon="3.83359">
        <ele>188.45</ele>
        <time>2017-10-09T14:42:58.999Z</time>
      </trkpt>
      <trkpt lat="49.5245" lon="3.83351">
        <ele>185.11</ele>
        <time>2017-10-09T14:43:08.999Z</time>
      </trkpt>
      <trkpt lat="49.52457" lon="3.83343">
        <ele>182.43</ele>
        <time>2017-10-09T14:43:18.999Z</time>
      </trkpt>
      <trkpt lat="49.52468" lon="3.8333">
        <ele>180.19</ele>
        <time>2017-10-09T14:43:28.999Z</time>
      </trkpt>
      <trkpt lat="49.52481" lon="3.83316">
        <ele>178.12</ele>
        <time>2017-10-09T14:43:38.999Z</time>
      </trkpt>
      <trkpt lat="49.52483" lon="3.83309">
        <ele>176.35</ele>
        <time>2017-10-09T14:43:48.999Z</time>
      </trkpt>
      <trkpt lat="49.52487" lon="3.83305">
        <ele>175.7</ele>
        <time>2017-10-09T14:43:58.999Z</time>
      </trkpt>
      <trkpt lat="49.52496" lon="3.83298">
        <ele>173.84</ele>
        <time>2017-10-09T14:44:08.999Z</time>
      </trkpt>
      <trkpt lat="49.525" lon="3.83296">
        <ele>172.18</ele>
        <time>2017-10-09T14:44:18.999Z</time>
      </trkpt>
      <trkpt lat="49.52512" lon="3.83284">
        <ele>170.81</ele>
        <time>2017-10-09T14:44:28.999Z</time>
      </trkpt>
      <trkpt lat="49.52519" lon="3.83278">
        <ele>169.12</ele>
        <time>2017-10-09T14:44:38.999Z</time>
      </trkpt>
      <trkpt lat="49.52528" lon="3.83272">
        <ele>167.61</ele>
        <time>2017-10-09T14:44:48.999Z</time>
      </trkpt>
      <trkpt lat="49.52539" lon="3.83265">
        <ele>165.57</ele>
        <time>2017-10-09T14:44:58.999Z</time>
      </trkpt>
      <trkpt lat="49.52545" lon="3.83264">
        <ele>163.3</ele>
        <time>2017-10-09T14:45:08.999Z</time>
      </trkpt>
      <trkpt lat="49.52552" lon="3.83259">
        <ele>161.22</ele>
        <time>2017-10-09T14:45:18.999Z</time>
      </trkpt>
      <trkpt lat="49.52556" lon="3.83256">
        <ele>158.85</ele>
        <time>2017-10-09T14:45:28.999Z</time>
      </trkpt>
      <trkpt lat="49.52558" lon="3.83256">
        <ele>156.82</ele>
        <time>2017-10-09T14:45:38.999Z</time>
      </trkpt>
      <trkpt lat="49.52561" lon="3.83256">
        <ele>154.95</ele>
        <time>2017-10-09T14:45:48.999Z</time>
      </trkpt>
      <trkpt lat="49.52563" lon="3.83253">
        <ele>152.91</ele>
        <time>2017-10-09T14:45:58.999Z</time>
      </trkpt>
      <trkpt lat="49.52569" lon="3.83248">
        <ele>149.8</ele>
        <time>2017-10-09T14:46:08.999Z</time>
      </trkpt>
      <trkpt lat="49.52575" lon="3.83246">
        <ele>146.95</ele>
        <time>2017-10-09T14:46:18.999Z</time>
      </trkpt>
      <trkpt lat="49.5258" lon="3.83241">
        <ele>145.34</ele>
        <time>2017-10-09T14:46:28.999Z</time>
      </trkpt>
      <trkpt lat="49.52613" lon="3.83242">
        <ele>142.41</ele>
        <time>2017-10-09T14:46:38.999Z</time>
      </trkpt>
      <trkpt lat="49.52629" lon="3.83236">
        <ele>139.57</ele>
        <time>2017-10-09T14:46:48.999Z</time>
      </trkpt>
      <trkpt lat="49.52641" lon="3.83229">
        <ele>136.76</ele>
        <time>2017-10-09T14:46:58.999Z</time>
      </trkpt>
      <trkpt lat="49.52654" lon="3.83222">
        <ele>134.42</ele>
        <time>2017-10-09T14:47:08.999Z</time>
      </trkpt>
      <trkpt lat="49.52668" lon="3.83217">
        <ele>133.19</ele>
        <time>2017-10-09T14:47:18.999Z</time>
      </trkpt>
      <trkpt lat="49.52682" lon="3.83211">
        <ele>133.36</ele>
        <time>2017-10-09T14:47:28.999Z</time>
      </trkpt>
      <trkpt lat="49.52691" lon="3.83205">
        <ele>133.36</ele>
        <time>2017-10-09T14:47:38.999Z</time>
      </trkpt>
      <trkpt lat="49.52699" lon="3.83201">
        <ele>133.25</ele>
        <time>2017-10-09T14:47:48.999Z</time>
      </trkpt>
      <trkpt lat="49.5271" lon="3.83197">
        <ele>133.41</ele>
        <time>2017-10-09T14:47:58.999Z</time>
      </trkpt>
      <trkpt lat="49.52717" lon="3.83194">
        <ele>133.45</ele>
        <time>2017-10-09T14:48:08.999Z</time>
      </trkpt>
      <trkpt lat="49.52726" lon="3.8319">
        <ele>132.87</ele>
        <time>2017-10-09T14:48:18.999Z</time>
      </trkpt>
      <trkpt lat="49.52741" lon="3.8319">
        <ele>132.18</ele>
        <time>2017-10-09T14:48:28.000Z</time>
      </trkpt>
      <trkpt lat="49.52749" lon="3.83187">
        <ele>131.22</ele>
        <time>2017-10-09T14:48:38.000Z</time>
      </trkpt>
      <trkpt lat="49.52759" lon="3.83189">
        <ele>130.34</ele>
        <time>2017-10-09T14:48:48.000Z</time>
      </trkpt>
      <trkpt lat="49.52768" lon="3.83185">
        <ele>130.03</ele>
        <time>2017-10-09T14:48:58.000Z</time>
      </trkpt>
      <trkpt lat="49.52785" lon="3.83181">
        <ele>130.39</ele>
        <time>2017-10-09T14:49:08.000Z</time>
      </trkpt>
      <trkpt lat="49.52792" lon="3.83181">
        <ele>130.8</ele>
        <time>2017-10-09T14:49:18.000Z</time>
      </trkpt>
      <trkpt lat="49.52803" lon="3.83181">
        <ele>131.32</ele>
        <time>2017-10-09T14:49:28.000Z</time>
      </trkpt>
      <trkpt lat="49.52812" lon="3.83178">
        <ele>131.38</ele>
        <time>2017-10-09T14:49:38.000Z</time>
      </trkpt>
      <trkpt lat="49.5282" lon="3.83172">
        <ele>131.05</ele>
        <time>2017-10-09T14:49:48.000Z</time>
      </trkpt>
      <trkpt lat="49.52831" lon="3.83174">
        <ele>130.08</ele>
        <time>2017-10-09T14:49:58.000Z</time>
      </trkpt>
      <trkpt lat="49.52845" lon="3.8317">
        <ele>129.54</ele>
        <time>2017-10-09T14:50:08.000Z</time>
      </trkpt>
      <trkpt lat="49.5286" lon="3.83172">
        <ele>129.25</ele>
        <time>2017-10-09T14:50:18.000Z</time>
      </trkpt>
      <trkpt lat="49.52871" lon="3.8317">
        <ele>129</ele>
        <time>2017-10-09T14:50:28.000Z</time>
      </trkpt>
      <trkpt lat="49.52874" lon="3.83173">
        <ele>129.25</ele>
        <time>2017-10-09T14:50:38.000Z</time>
      </trkpt>
      <trkpt lat="49.52884" lon="3.83175">
        <ele>130.34</ele>
        <time>2017-10-09T14:50:48.000Z</time>
      </trkpt>
      <trkpt lat="49.52899" lon="3.83181">
        <ele>131.56</ele>
        <time>2017-10-09T14:50:58.000Z</time>
      </trkpt>
      <trkpt lat="49.52905" lon="3.83173">
        <ele>131.84</ele>
        <time>2017-10-09T14:51:08.000Z</time>
      </trkpt>
      <trkpt lat="49.52916" lon="3.83165">
        <ele>131.39</ele>
        <time>2017-10-09T14:51:18.000Z</time>
      </trkpt>
      <trkpt lat="49.52931" lon="3.83161">
        <ele>130.22</ele>
        <time>2017-10-09T14:51:28.000Z</time>
      </trkpt>
      <trkpt lat="49.5294" lon="3.83154">
        <ele>129.61</ele>
        <time>2017-10-09T14:51:38.000Z</time>
      </trkpt>
      <trkpt lat="49.52948" lon="3.83149">
        <ele>128.36</ele>
        <time>2017-10-09T14:51:48.000Z</time>
      </trkpt>
      <trkpt lat="49.5296" lon="3.83146">
        <ele>126.9</ele>
        <time>2017-10-09T14:51:58.000Z</time>
      </trkpt>
      <trkpt lat="49.52972" lon="3.83143">
        <ele>125.61</ele>
        <time>2017-10-09T14:52:08.000Z</time>
      </trkpt>
      <trkpt lat="49.52984" lon="3.83141">
        <ele>124.58</ele>
        <time>2017-10-09T14:52:18.000Z</time>
      </trkpt>
      <trkpt lat="49.53002" lon="3.83136">
        <ele>123.65</ele>
        <time>2017-10-09T14:52:28.000Z</time>
      </trkpt>
      <trkpt lat="49.5301" lon="3.83129">
        <ele>122.81</ele>
        <time>2017-10-09T14:52:38.000Z</time>
      </trkpt>
      <trkpt lat="49.53023" lon="3.83122">
        <ele>121.92</ele>
        <time>2017-10-09T14:52:48.000Z</time>
      </trkpt>
      <trkpt lat="49.53036" lon="3.83118">
        <ele>120.83</ele>
        <time>2017-10-09T14:52:58.000Z</time>
      </trkpt>
      <trkpt lat="49.53045" lon="3.83107">
        <ele>120.29</ele>
        <time>2017-10-09T14:53:08.000Z</time>
      </trkpt>
      <trkpt lat="49.53057" lon="3.831">
        <ele>120.66</ele>
        <time>2017-10-09T14:53:18.000Z</time>
      </trkpt>
      <trkpt lat="49.5307" lon="3.83089">
        <ele>121.71</ele>
        <time>2017-10-09T14:53:28.000Z</time>
      </trkpt>
      <trkpt lat="49.53083" lon="3.83084">
        <ele>122.85</ele>
        <time>2017-10-09T14:53:38.000Z</time>
      </trkpt>
      <trkpt lat="49.53095" lon="3.83075">
        <ele>123.27</ele>
        <time>2017-10-09T14:53:48.000Z</time>
      </trkpt>
      <trkpt lat="49.53105" lon="3.83068">
        <ele>123.15</ele>
        <time>2017-10-09T14:53:58.000Z</time>
      </trkpt>
      <trkpt lat="49.53115" lon="3.83059">
        <ele>122.43</ele>
        <time>2017-10-09T14:54:08.000Z</time>
      </trkpt>
      <trkpt lat="49.53121" lon="3.83054">
        <ele>121.89</ele>
        <time>2017-10-09T14:54:18.000Z</time>
      </trkpt>
      <trkpt lat="49.53133" lon="3.83049">
        <ele>121.61</ele>
        <time>2017-10-09T14:54:28.000Z</time>
      </trkpt>
      <trkpt lat="49.53139" lon="3.83046">
        <ele>121.3</ele>
        <time>2017-10-09T14:54:38.000Z</time>
      </trkpt>
      <trkpt lat="49.53151" lon="3.83045">
        <ele>120.74</ele>
        <time>2017-10-09T14:54:48.000Z</time>
      </trkpt>
      <trkpt lat="49.53168" lon="3.8304">
        <ele>120.02</ele>
        <time>2017-10-09T14:54:58.000Z</time>
      </trkpt>
      <trkpt lat="49.53176" lon="3.83031">
        <ele>119.48</ele>
        <time>2017-10-09T14:55:08.000Z</time>
      </trkpt>
      <trkpt lat="49.53181" lon="3.83019">
        <ele>119.28</ele>
        <time>2017-10-09T14:55:18.000Z</time>
      </trkpt>
      <trkpt lat="49.53195" lon="3.83006">
        <ele>119.42</ele>
        <time>2017-10-09T14:55:28.000Z</time>
      </trkpt>
      <trkpt lat="49.53208" lon="3.82992">
        <ele>120.7</ele>
        <time>2017-10-09T14:55:38.000Z</time>
      </trkpt>
      <trkpt lat="49.53211" lon="3.82985">
        <ele>122.34</ele>
        <time>2017-10-09T14:55:48.000Z</time>
      </trkpt>
      <trkpt lat="49.53218" lon="3.8297">
        <ele>123.51</ele>
        <time>2017-10-09T14:55:58.000Z</time>
      </trkpt>
      <trkpt lat="49.53224" lon="3.82956">
        <ele>124.4</ele>
        <time>2017-10-09T14:56:08.000Z</time>
      </trkpt>
      <trkpt lat="49.53232" lon="3.82947">
        <ele>124.87</ele>
        <time>2017-10-09T14:56:18.000Z</time>
      </trkpt>
      <trkpt lat="49.53241" lon="3.82937">
        <ele>124.63</ele>
        <time>2017-10-09T14:56:28.000Z</time>
      </trkpt>
      <trkpt lat="49.53249" lon="3.82926">
        <ele>124.12</ele>
        <time>2017-10-09T14:56:38.000Z</time>
      </trkpt>
      <trkpt lat="49.53256" lon="3.82916">
        <ele>123.97</ele>
        <time>2017-10-09T14:56:48.000Z</time>
      </trkpt>
      <trkpt lat="49.53268" lon="3.82905">
        <ele>124.12</ele>
        <time>2017-10-09T14:56:58.000Z</time>
      </trkpt>
      <trkpt lat="49.53274" lon="3.8289">
        <ele>124.44</ele>
        <time>2017-10-09T14:57:08.000Z</time>
      </trkpt>
      <trkpt lat="49.53281" lon="3.82878">
        <ele>124.7</ele>
        <time>2017-10-09T14:57:18.000Z</time>
      </trkpt>
      <trkpt lat="49.53289" lon="3.82867">
        <ele>124.93</ele>
        <time>2017-10-09T14:57:28.000Z</time>
      </trkpt>
      <trkpt lat="49.53297" lon="3.82856">
        <ele>124.57</ele>
        <time>2017-10-09T14:57:38.000Z</time>
      </trkpt>
      <trkpt lat="49.53308" lon="3.82845">
        <ele>124.13</ele>
        <time>2017-10-09T14:57:48.000Z</time>
      </trkpt>
      <trkpt lat="49.53317" lon="3.82836">
        <ele>124.06</ele>
        <time>2017-10-09T14:57:58.000Z</time>
      </trkpt>
      <trkpt lat="49.53329" lon="3.82833">
        <ele>123.98</ele>
        <time>2017-10-09T14:58:08.000Z</time>
      </trkpt>
      <trkpt lat="49.53336" lon="3.82828">
        <ele>123.55</ele>
        <time>2017-10-09T14:58:18.000Z</time>
      </trkpt>
      <trkpt lat="49.53348" lon="3.82825">
        <ele>123.56</ele>
        <time>2017-10-09T14:58:28.000Z</time>
      </trkpt>
      <trkpt lat="49.53356" lon="3.82815">
        <ele>123.73</ele>
        <time>2017-10-09T14:58:38.000Z</time>
      </trkpt>
      <trkpt lat="49.53365" lon="3.82802">
        <ele>123.73</ele>
        <time>2017-10-09T14:58:48.000Z</time>
      </trkpt>
      <trkpt lat="49.53375" lon="3.82794">
        <ele>124.5</ele>
        <time>2017-10-09T14:58:58.000Z</time>
      </trkpt>
      <trkpt lat="49.5338" lon="3.82782">
        <ele>125.18</ele>
        <time>2017-10-09T14:59:08.000Z</time>
      </trkpt>
      <trkpt lat="49.53386" lon="3.82771">
        <ele>126.04</ele>
        <time>2017-10-09T14:59:18.000Z</time>
      </trkpt>
      <trkpt lat="49.53386" lon="3.8276">
        <ele>126.16</ele>
        <time>2017-10-09T14:59:28.000Z</time>
      </trkpt>
      <trkpt lat="49.53393" lon="3.82752">
        <ele>125.52</ele>
        <time>2017-10-09T14:59:38.000Z</time>
      </trkpt>
      <trkpt lat="49.53402" lon="3.82741">
        <ele>125.16</ele>
        <time>2017-10-09T14:59:48.000Z</time>
      </trkpt>
      <trkpt lat="49.5341" lon="3.82725">
        <ele>124.95</ele>
        <time>2017-10-09T14:59:58.000Z</time>
      </trkpt>
      <trkpt lat="49.53417" lon="3.8271">
        <ele>125.28</ele>
        <time>2017-10-09T15:00:08.000Z</time>
      </trkpt>
      <trkpt lat="49.53429" lon="3.82692">
        <ele>125.97</ele>
        <time>2017-10-09T15:00:18.000Z</time>
      </trkpt>
      <trkpt lat="49.53437" lon="3.82679">
        <ele>126.78</ele>
        <time>2017-10-09T15:00:28.000Z</time>
      </trkpt>
      <trkpt lat="49.53445" lon="3.82663">
        <ele>127.14</ele>
        <time>2017-10-09T15:00:38.000Z</time>
      </trkpt>
      <trkpt lat="49.53455" lon="3.82655">
        <ele>127.4</ele>
        <time>2017-10-09T15:00:48.000Z</time>
      </trkpt>
      <trkpt lat="49.53463" lon="3.82655">
        <ele>127.35</ele>
        <time>2017-10-09T15:00:58.000Z</time>
      </trkpt>
      <trkpt lat="49.53475" lon="3.82663">
        <ele>126.75</ele>
        <time>2017-10-09T15:01:08.000Z</time>
      </trkpt>
      <trkpt lat="49.53487" lon="3.82671">
        <ele>126.32</ele>
        <time>2017-10-09T15:01:18.000Z</time>
      </trkpt>
      <trkpt lat="49.53497" lon="3.82679">
        <ele>126.49</ele>
        <time>2017-10-09T15:01:28.000Z</time>
      </trkpt>
      <trkpt lat="49.53509" lon="3.82683">
        <ele>126.73</ele>
        <time>2017-10-09T15:01:38.000Z</time>
      </trkpt>
      <trkpt lat="49.53515" lon="3.82691">
        <ele>126.49</ele>
        <time>2017-10-09T15:01:48.000Z</time>
      </trkpt>
      <trkpt lat="49.53527" lon="3.82688">
        <ele>126</ele>
        <time>2017-10-09T15:01:58.000Z</time>
      </trkpt>
      <trkpt lat="49.53535" lon="3.82685">
        <ele>126.23</ele>
        <time>2017-10-09T15:02:08.000Z</time>
      </trkpt>
      <trkpt lat="49.53545" lon="3.82671">
        <ele>125.85</ele>
        <time>2017-10-09T15:02:18.000Z</time>
      </trkpt>
      <trkpt lat="49.5355" lon="3.82668">
        <ele>126.02</ele>
        <time>2017-10-09T15:02:28.000Z</time>
      </trkpt>
      <trkpt lat="49.53555" lon="3.82669">
        <ele>127.25</ele>
        <time>2017-10-09T15:02:38.000Z</time>
      </trkpt>
      <trkpt lat="49.53552" lon="3.82665">
        <ele>127.86</ele>
        <time>2017-10-09T15:02:47.000Z</time>
      </trkpt>
      <trkpt lat="49.5355" lon="3.82663">
        <ele>128.19</ele>
        <time>2017-10-09T15:03:37.000Z</time>
      </trkpt>
      <trkpt lat="49.53546" lon="3.82657">
        <ele>128.91</ele>
        <time>2017-10-09T15:03:47.000Z</time>
      </trkpt>
      <trkpt lat="49.53545" lon="3.82659">
        <ele>128.97</ele>
        <time>2017-10-09T15:03:57.000Z</time>
      </trkpt>
      <trkpt lat="49.53547" lon="3.82662">
        <ele>128.84</ele>
        <time>2017-10-09T15:04:07.000Z</time>
      </trkpt>
      <trkpt lat="49.53546" lon="3.82668">
        <ele>128.82</ele>
        <time>2017-10-09T15:04:17.000Z</time>
      </trkpt>
      <trkpt lat="49.53545" lon="3.8267">
        <ele>128.97</ele>
        <time>2017-10-09T15:04:27.000Z</time>
      </trkpt>
      <trkpt lat="49.5354" lon="3.8267">
        <ele>129.1</ele>
        <time>2017-10-09T15:04:37.000Z</time>
      </trkpt>
      <trkpt lat="49.5354" lon="3.82669">
        <ele>129.76</ele>
        <time>2017-10-09T15:05:00.000Z</time>
      </trkpt>
      <trkpt lat="49.53542" lon="3.82672">
        <ele>129.98</ele>
        <time>2017-10-09T15:05:09.000Z</time>
      </trkpt>
      <trkpt lat="49.53545" lon="3.82666">
        <ele>128.9</ele>
        <time>2017-10-09T15:06:29.000Z</time>
      </trkpt>
      <trkpt lat="49.53547" lon="3.82664">
        <ele>128.64</ele>
        <time>2017-10-09T15:06:38.000Z</time>
      </trkpt>
      <trkpt lat="49.53547" lon="3.82661">
        <ele>128.41</ele>
        <time>2017-10-09T15:06:48.000Z</time>
      </trkpt>
      <trkpt lat="49.53547" lon="3.82661">
        <ele>128.32</ele>
        <time>2017-10-09T15:06:52.000Z</time>
      </trkpt>
      <trkpt lat="49.53548" lon="3.82662">
        <ele>127.84</ele>
        <time>2017-10-09T15:07:18.000Z</time>
      </trkpt>
      <trkpt lat="49.53548" lon="3.82664">
        <ele>127.62</ele>
        <time>2017-10-09T15:07:28.000Z</time>
      </trkpt>
      <trkpt lat="49.53548" lon="3.82665">
        <ele>127.45</ele>
        <time>2017-10-09T15:07:39.000Z</time>
      </trkpt>
      <trkpt lat="49.53548" lon="3.82666">
        <ele>127.28</ele>
        <time>2017-10-09T15:07:49.000Z</time>
      </trkpt>
      <trkpt lat="49.53547" lon="3.82668">
        <ele>127.1</ele>
        <time>2017-10-09T15:07:59.000Z</time>
      </trkpt>
      <trkpt lat="49.53547" lon="3.82668">
        <ele>127.01</ele>
        <time>2017-10-09T15:08:06.000Z</time>
      </trkpt>
    </trkseg>
  </trk>
</gpx>